ButlerWeather Station
Hourly Leaf Wetness Data

Source: University of Missouri

To the bottom of the page

Year Month Day Hour Leaf Wetness Total
Precipitation
Avg. Temp Avg. Rel.
Humidity
Wind
Speed
CST mV in mm F C % mph
2017 08 12 1:00 Wet 311.3 0.0 0.00 65.1 18.4 87.2 n/a
2017 08 12 2:00 277.6 0.0 0.00 66.1 19.0 80.7 n/a
2017 08 12 3:00 275.9 0.0 0.00 64.8 18.2 83.8 n/a
2017 08 12 4:00 276.5 0.0 0.00 63.2 17.4 87.3 n/a
2017 08 12 5:00 277.1 0.0 0.00 62.6 17.0 88.4 n/a
2017 08 12 6:00 277.0 0.0 0.00 62.7 17.1 88.6 n/a
2017 08 12 7:00 275.5 0.0 0.00 64.4 18.0 85.6 n/a
2017 08 12 8:00 273.4 0.0 0.00 68.2 20.1 76.87 n/a
2017 08 12 9:00 272.3 0.0 0.00 71.3 21.9 68.03 n/a
2017 08 12 10:00 271.8 0.0 0.00 72.8 22.7 64.95 n/a
2017 08 12 11:00 271.3 0.0 0.00 74.3 23.5 59.73 n/a
2017 08 12 12:00 270.6 0.0 0.00 75.7 24.3 54.52 n/a
2017 08 12 13:00 270.4 0.0 0.00 77.1 25.1 53.49 n/a
2017 08 12 14:00 270.8 0.0 0.00 76.3 24.6 55.44 n/a
2017 08 12 15:00 270.9 0.0 0.00 76.1 24.5 55.57 n/a
2017 08 12 16:00 270.9 0.0 0.00 76.6 24.8 56.27 n/a
2017 08 12 17:00 270.9 0.0 0.00 76.9 24.9 57.12 n/a
2017 08 12 18:00 270.9 0.0 0.00 76.6 24.8 56.97 n/a
2017 08 12 19:00 271.8 0.0 0.00 74.6 23.7 61.72 n/a
2017 08 12 20:00 274.0 0.0 0.00 70.5 21.4 72.29 n/a
2017 08 12 21:00 275.2 0.0 0.00 67.8 19.9 79.07 n/a
2017 08 12 22:00 275.7 0.0 0.00 66.9 19.4 79.61 n/a
2017 08 12 23:00 276.2 0.0 0.00 65.6 18.6 83.4 n/a
2017 08 12 24:00 277.7 0.0 0.00 64.6 18.1 85.7 n/a
2017 08 13 1:00 279.5 0.0 0.00 63.6 17.6 87.5 n/a
2017 08 13 2:00 278.9 0.0 0.00 62.9 17.2 86.4 n/a
2017 08 13 3:00 278.7 0.0 0.00 62.3 16.8 86.8 n/a
2017 08 13 4:00 276.3 0.0 0.00 62.5 16.9 86 n/a
2017 08 13 5:00 275.5 0.0 0.00 63.4 17.4 83.5 n/a
2017 08 13 6:00 275.1 0.0 0.00 63.5 17.5 83.4 n/a
2017 08 13 7:00 275.1 0.0 0.00 64.0 17.8 83.6 n/a
2017 08 13 8:00 273.5 0.0 0.00 66.7 19.3 77.75 n/a
2017 08 13 9:00 272.3 0.0 0.00 70.0 21.1 74.5 n/a
2017 08 13 10:00 271.7 0.0 0.00 72.6 22.6 73.3 n/a
2017 08 13 11:00 271.5 0.0 0.00 75.1 23.9 71.1 n/a
2017 08 13 12:00 271.8 0.0 0.00 76.0 24.4 70.8 n/a
2017 08 13 13:00 271.7 0.0 0.00 77.1 25.0 68 n/a
2017 08 13 14:00 271.7 0.0 0.00 77.1 25.1 68.86 n/a
2017 08 13 15:00 271.7 0.0 0.00 77.1 25.1 67.03 n/a
2017 08 13 16:00 271.9 0.0 0.00 77.2 25.1 66.95 n/a
2017 08 13 17:00 272.0 0.0 0.00 76.4 24.7 69.1 n/a
2017 08 13 18:00 272.7 0.0 0.00 74.7 23.7 73.25 n/a
2017 08 13 19:00 273.3 0.0 0.00 73.0 22.8 76.43 n/a
2017 08 13 20:00 274.9 0.0 0.00 70.4 21.3 81.8 n/a
2017 08 13 21:00 275.8 0.0 0.00 68.5 20.3 85.2 n/a
2017 08 13 22:00 277.8 0.0 0.00 67.0 19.4 88.7 n/a
2017 08 13 23:00 281.5 0.0 0.00 65.9 18.8 91.4 n/a
2017 08 13 24:00 Wet 297.0 0.0 0.00 65.0 18.3 93.5 n/a
2017 08 14 1:00 Wet 345.2 0.0 0.00 64.3 17.9 95.4 n/a
2017 08 14 2:00 Wet 341.4 0.0 0.00 64.9 18.3 95.7 n/a
2017 08 14 3:00 Wet 318.7 0.0 0.00 65.3 18.5 95.7 n/a
2017 08 14 4:00 Wet 303.2 0.0 0.00 65.7 18.7 94.3 n/a
2017 08 14 5:00 Wet 285.9 0.0 0.00 65.7 18.7 93.5 n/a
2017 08 14 6:00 277.7 0.0 0.00 65.8 18.8 93.4 n/a
2017 08 14 7:00 276.6 0.0 0.00 66.3 19.0 91.8 n/a
2017 08 14 8:00 275.7 0.0 0.00 67.3 19.6 89.7 n/a
2017 08 14 9:00 274.2 0.0 0.00 69.1 20.6 85.2 n/a
2017 08 14 10:00 273.7 0.0 0.00 70.4 21.4 82.3 n/a
2017 08 14 11:00 272.3 0.0 0.00 73.6 23.1 76.71 n/a
2017 08 14 12:00 272.1 0.0 0.00 76.2 24.6 72.48 n/a
2017 08 14 13:00 272.0 0.0 0.00 78.9 26.1 68.97 n/a
2017 08 14 14:00 272.0 0.0 0.00 80.4 26.9 66.68 n/a
2017 08 14 15:00 271.8 0.0 0.00 82.1 27.8 64.12 n/a
2017 08 14 16:00 271.7 0.0 0.00 82.7 28.2 61.58 n/a
2017 08 14 17:00 271.6 0.0 0.00 83.0 28.4 60.54 n/a
2017 08 14 18:00 272.0 0.0 0.00 81.1 27.3 65.37 n/a
2017 08 14 19:00 272.9 0.0 0.00 79.3 26.3 69.42 n/a
2017 08 14 20:00 274.6 0.0 0.00 76.2 24.6 76.51 n/a
2017 08 14 21:00 275.5 0.0 0.00 74.4 23.5 80.3 n/a
2017 08 14 22:00 276.7 0.0 0.00 73.0 22.8 84.4 n/a
2017 08 14 23:00 279.1 0.0 0.00 71.8 22.1 87.4 n/a
2017 08 14 24:00 279.3 0.0 0.00 71.2 21.8 89 n/a
2017 08 15 1:00 281.3 0.0 0.00 70.2 21.2 91 n/a
2017 08 15 2:00 Wet 311.9 0.0 0.00 68.8 20.5 93.6 n/a
2017 08 15 3:00 Wet 361.9 0.0 0.00 68.2 20.1 95.2 n/a
2017 08 15 4:00 Wet 344.5 0.0 0.00 68.0 20.0 95.6 n/a
2017 08 15 5:00 Wet 348.3 0.0 0.00 67.4 19.7 95.7 n/a
2017 08 15 6:00 Wet 352.6 0.0 0.00 66.8 19.3 96.2 n/a
2017 08 15 7:00 Wet 314.6 0.0 0.00 67.5 19.7 96 n/a
2017 08 15 8:00 275.7 0.0 0.00 72.0 22.2 87 n/a
2017 08 15 9:00 272.6 0.0 0.00 75.8 24.3 80.7 n/a
2017 08 15 10:00 272.0 0.0 0.00 78.2 25.7 76.17 n/a
2017 08 15 11:00 271.9 0.0 0.00 80.2 26.8 72.21 n/a
2017 08 15 12:00 271.8 0.0 0.00 81.6 27.5 69.33 n/a
2017 08 15 13:00 272.0 0.0 0.00 81.5 27.5 68.75 n/a
2017 08 15 14:00 271.6 0.0 0.00 83.1 28.4 64.68 n/a
2017 08 15 15:00 271.7 0.0 0.00 83.4 28.5 65.3 n/a
2017 08 15 16:00 272.0 0.0 0.00 84.4 29.1 63.92 n/a
2017 08 15 17:00 272.1 0.0 0.00 83.5 28.6 65.8 n/a
2017 08 15 18:00 272.6 0.0 0.00 82.3 28.0 69.78 n/a
2017 08 15 19:00 273.1 0.0 0.00 81.2 27.3 72.79 n/a
2017 08 15 20:00 274.7 0.0 0.00 78.3 25.7 79.36 n/a
2017 08 15 21:00 275.0 0.0 0.00 76.9 24.9 80.7 n/a
2017 08 15 22:00 275.3 0.0 0.00 75.8 24.4 82.9 n/a
2017 08 15 23:00 275.6 0.0 0.00 75.1 23.9 85 n/a
2017 08 15 24:00 275.0 0.0 0.00 75.9 24.4 81.8 n/a
2017 08 16 1:00 275.0 0.0 0.00 75.6 24.2 83 n/a
2017 08 16 2:00 275.5 0.0 0.00 74.6 23.7 86.5 n/a
2017 08 16 3:00 275.8 0.0 0.00 74.0 23.3 88.7 n/a
2017 08 16 4:00 Wet 381.8 0.4 9.91 71.3 21.8 93 n/a
2017 08 16 5:00 Wet 302.8 0.0 0.00 69.9 21.1 95 n/a
2017 08 16 6:00 Wet 286.9 0.0 0.00 70.2 21.2 94.7 n/a
2017 08 16 7:00 280.5 0.0 0.00 70.6 21.5 94.1 n/a
2017 08 16 8:00 274.6 0.0 0.00 73.6 23.1 88.7 n/a
2017 08 16 9:00 273.4 0.0 0.00 77.2 25.1 81.6 n/a
2017 08 16 10:00 273.5 0.0 0.00 78.8 26.0 79.25 n/a
2017 08 16 11:00 Wet 383.5 0.2 4.83 73.2 22.9 90.2 n/a
2017 08 16 12:00 Wet 284.8 0.0 0.00 75.2 24.0 85.1 n/a
2017 08 16 13:00 Wet 292.2 0.0 0.00 74.8 23.8 88.8 n/a
2017 08 16 14:00 273.7 0.0 0.00 80.0 26.7 73.43 n/a
2017 08 16 15:00 273.3 0.0 0.00 81.8 27.6 71.27 n/a
2017 08 16 16:00 273.3 0.0 0.00 82.6 28.1 72.28 n/a
2017 08 16 17:00 273.6 0.0 0.00 81.5 27.5 76.89 n/a
2017 08 16 18:00 Wet 315.6 0.3 7.62 75.8 24.3 83.9 n/a
2017 08 16 19:00 Wet 344.7 0.0 0.00 64.8 18.3 98.9 n/a
2017 08 16 20:00 Wet 386.4 0.0 0.76 65.2 18.4 99.1 n/a
2017 08 16 21:00 Wet 379.8 0.0 0.51 66.2 19.0 97.6 n/a
2017 08 16 22:00 Wet 392.8 0.1 2.54 66.9 19.4 95.6 n/a
2017 08 16 23:00 Wet 308.8 0.0 0.00 67.1 19.5 95.9 n/a
2017 08 16 24:00 Wet 286.5 0.0 0.00 67.7 19.8 95.9 n/a
2017 08 17 1:00 281.5 0.0 0.00 68.1 20.1 94.7 n/a
2017 08 17 2:00 279.1 0.0 0.00 67.7 19.8 94.7 n/a
2017 08 17 3:00 Wet 300.2 0.0 0.00 66.8 19.3 95.4 n/a
2017 08 17 4:00 Wet 340.7 0.0 0.00 66.2 19.0 96.8 n/a
2017 08 17 5:00 Wet 325.3 0.0 0.00 66.8 19.4 96.7 n/a
2017 08 17 6:00 Wet 292.7 0.0 0.00 67.0 19.4 96.5 n/a
2017 08 17 7:00 280.6 0.0 0.00 67.2 19.6 97.1 n/a
2017 08 17 8:00 276.3 0.0 0.00 68.6 20.3 94.2 n/a
2017 08 17 9:00 274.0 0.0 0.00 70.7 21.5 84.3 n/a
2017 08 17 10:00 273.1 0.0 0.00 72.4 22.4 75.55 n/a
2017 08 17 11:00 272.7 0.0 0.00 73.6 23.1 71.5 n/a
2017 08 17 12:00 271.8 0.0 0.00 76.4 24.7 66.52 n/a
2017 08 17 13:00 271.7 0.0 0.00 77.8 25.4 63.02 n/a
2017 08 17 14:00 271.5 0.0 0.00 79.2 26.2 55.28 n/a
2017 08 17 15:00 271.4 0.0 0.00 80.0 26.7 51.1 n/a
2017 08 17 16:00 271.4 0.0 0.00 80.7 27.0 49.52 n/a
2017 08 17 17:00 271.0 0.0 0.00 80.5 26.9 50.09 n/a
2017 08 17 18:00 270.9 0.0 0.00 79.8 26.5 53.11 n/a
2017 08 17 19:00 271.8 0.0 0.00 77.5 25.3 59.88 n/a
2017 08 17 20:00 273.7 0.0 0.00 73.7 23.1 66.2 n/a
2017 08 17 21:00 276.4 0.0 0.00 70.0 21.1 76.78 n/a
2017 08 17 22:00 279.0 0.0 0.00 68.6 20.4 79.41 n/a
2017 08 17 23:00 Wet 284.6 0.0 0.00 67.4 19.6 82.4 n/a
2017 08 17 24:00 Wet 296.7 0.0 0.00 66.3 19.0 86.3 n/a
2017 08 18 1:00 Wet 303.2 0.0 0.00 65.5 18.6 86.4 n/a
2017 08 18 2:00 Wet 343.1 0.0 0.00 64.3 17.9 89 n/a
2017 08 18 3:00 Wet 370.6 0.0 0.00 63.5 17.5 90.8 n/a
2017 08 18 4:00 Wet 367.8 0.0 0.00 62.8 17.1 91.2 n/a
2017 08 18 5:00 Wet 352.0 0.0 0.00 62.3 16.8 89.8 n/a
2017 08 18 6:00 Wet 342.6 0.0 0.00 61.9 16.6 90.7 n/a
2017 08 18 7:00 Wet 287.5 0.0 0.00 64.5 18.1 83 n/a
2017 08 18 8:00 274.1 0.0 0.00 67.5 19.7 81.2 n/a
2017 08 18 9:00 274.7 0.0 0.00 67.9 19.9 83 n/a
2017 08 18 10:00 274.0 0.0 0.00 70.2 21.2 80.5 n/a
2017 08 18 11:00 273.1 0.0 0.00 75.8 24.3 74.48 n/a
2017 08 18 12:00 272.4 0.0 0.00 78.5 25.8 70.73 n/a
2017 08 18 13:00 272.3 0.0 0.00 79.7 26.5 71.41 n/a
2017 08 18 14:00 272.3 0.0 0.00 83.3 28.5 69.02 n/a
2017 08 18 15:00 272.4 0.0 0.00 84.7 29.3 69.75 n/a
2017 08 18 16:00 272.3 0.0 0.00 85.0 29.4 67 n/a
2017 08 18 17:00 271.7 0.0 0.00 79.9 26.6 58.36 n/a
2017 08 18 18:00 271.5 0.0 0.00 79.1 26.2 57.66 n/a
2017 08 18 19:00 272.0 0.0 0.00 78.7 25.9 63.59 n/a
2017 08 18 20:00 274.0 0.0 0.00 74.7 23.7 74.9 n/a
2017 08 18 21:00 274.9 0.0 0.00 72.3 22.4 79.88 n/a
2017 08 18 22:00 275.0 0.0 0.00 71.3 21.9 80.1 n/a
2017 08 18 23:00 275.5 0.0 0.00 70.9 21.6 84.5 n/a
2017 08 18 24:00 277.8 0.0 0.00 70.2 21.2 88.8 n/a
2017 08 19 1:00 283.7 0.0 0.00 69.8 21.0 91.6 n/a
2017 08 19 2:00 Wet 284.0 0.0 0.00 69.3 20.7 92.1 n/a
2017 08 19 3:00 Wet 310.0 0.0 0.00 68.1 20.1 94.2 n/a
2017 08 19 4:00 Wet 353.4 0.0 0.00 67.8 19.9 95 n/a
2017 08 19 5:00 Wet 356.4 0.0 0.00 67.2 19.6 95.4 n/a
2017 08 19 6:00 Wet 353.6 0.0 0.00 66.5 19.1 96.5 n/a
2017 08 19 7:00 Wet 327.9 0.0 0.00 68.1 20.0 95.4 n/a
2017 08 19 8:00 278.2 0.0 0.00 73.1 22.8 85 n/a
2017 08 19 9:00 271.5 0.0 0.00 78.3 25.8 74.13 n/a
2017 08 19 10:00 270.9 0.0 0.00 81.7 27.6 67.86 n/a
2017 08 19 11:00 270.3 0.0 0.00 85.7 29.9 58.14 n/a
2017 08 19 12:00 270.2 0.0 0.00 87.2 30.7 52.36 n/a
2017 08 19 13:00 269.8 0.0 0.00 88.6 31.5 50.78 n/a
2017 08 19 14:00 270.3 0.0 0.00 89.3 31.8 53.4 n/a
2017 08 19 15:00 270.6 0.0 0.00 90.2 32.4 53.76 n/a
2017 08 19 16:00 270.8 0.0 0.00 89.5 31.9 51.56 n/a
2017 08 19 17:00 270.2 0.0 0.00 89.8 32.1 51.8 n/a
2017 08 19 18:00 270.6 0.0 0.00 88.4 31.3 58.94 n/a
2017 08 19 19:00 271.8 0.0 0.00 85.3 29.6 66.17 n/a
2017 08 19 20:00 274.1 0.0 0.00 81.0 27.2 76.18 n/a
2017 08 19 21:00 274.9 0.0 0.00 79.2 26.2 80.4 n/a
2017 08 19 22:00 275.4 0.0 0.00 78.3 25.7 84.3 n/a
2017 08 19 23:00 276.6 0.0 0.00 77.5 25.3 87.6 n/a
2017 08 19 24:00 276.8 0.0 0.00 76.8 24.9 88.1 n/a
2017 08 20 1:00 276.3 0.0 0.00 76.5 24.7 87.1 n/a
2017 08 20 2:00 276.4 0.0 0.00 75.7 24.3 88.3 n/a
2017 08 20 3:00 276.4 0.0 0.00 75.2 24.0 88.6 n/a
2017 08 20 4:00 276.8 0.0 0.00 74.7 23.7 88.9 n/a
2017 08 20 5:00 277.3 0.0 0.00 74.7 23.7 88.6 n/a
2017 08 20 6:00 Wet 290.7 0.0 0.00 73.4 23.0 92.3 n/a
2017 08 20 7:00 275.5 0.0 0.00 72.6 22.5 79.76 n/a
2017 08 20 8:00 273.9 0.0 0.00 72.9 22.7 75.75 n/a
2017 08 20 9:00 272.2 0.0 0.00 76.5 24.7 69.39 n/a
2017 08 20 10:00 271.6 0.0 0.00 79.0 26.1 68.05 n/a
2017 08 20 11:00 271.5 0.0 0.00 81.9 27.7 64.39 n/a
2017 08 20 12:00 271.5 0.0 0.00 84.0 28.9 63.3 n/a
2017 08 20 13:00 271.6 0.0 0.00 86.0 30.0 63.57 n/a
2017 08 20 14:00 271.6 0.0 0.00 88.3 31.3 63.5 n/a
2017 08 20 15:00 271.5 0.0 0.00 90.0 32.2 60.16 n/a
2017 08 20 16:00 271.0 0.0 0.00 91.4 33.0 57.09 n/a
2017 08 20 17:00 271.0 0.0 0.00 90.2 32.4 59.21 n/a
2017 08 20 18:00 271.6 0.0 0.00 89.1 31.7 63.02 n/a
2017 08 20 19:00 272.8 0.0 0.00 81.6 27.5 68.54 n/a
2017 08 20 20:00 272.9 0.0 0.00 75.6 24.2 65.63 n/a
2017 08 20 21:00 272.6 0.0 0.00 76.0 24.4 60.66 n/a
2017 08 20 22:00 272.3 0.0 0.00 76.9 25.0 58.1 n/a
2017 08 20 23:00 273.2 0.0 0.00 74.2 23.5 71.3 n/a
2017 08 20 24:00 274.0 0.0 0.00 72.4 22.5 78.69 n/a
2017 08 21 1:00 274.7 0.0 0.00 71.5 21.9 81.9 n/a
2017 08 21 2:00 274.5 0.0 0.00 71.8 22.1 78.12 n/a
2017 08 21 3:00 274.4 0.0 0.00 72.1 22.3 79.83 n/a
2017 08 21 4:00 274.9 0.0 0.00 72.1 22.3 81.2 n/a
2017 08 21 5:00 275.4 0.0 0.00 70.9 21.6 85.2 n/a
2017 08 21 6:00 275.7 0.0 0.00 71.4 21.9 86.9 n/a
2017 08 21 7:00 275.6 0.0 0.00 72.5 22.5 86.4 n/a
2017 08 21 8:00 274.8 0.0 0.00 74.0 23.3 85.4 n/a
2017 08 21 9:00 273.2 0.0 0.00 77.7 25.4 79.41 n/a
2017 08 21 10:00 271.9 0.0 0.00 82.8 28.2 71.46 n/a
2017 08 21 11:00 271.6 0.0 0.00 84.8 29.3 68.05 n/a
2017 08 21 12:00 272.1 0.0 0.00 85.0 29.4 66.7 n/a
2017 08 21 13:00 273.3 0.0 0.00 82.9 28.3 73.61 n/a
2017 08 21 14:00 272.4 0.0 0.00 86.4 30.2 66.62 n/a
2017 08 21 15:00 272.2 0.0 0.00 87.8 31.0 62.71 n/a
2017 08 21 16:00 272.2 0.0 0.00 88.3 31.3 61.11 n/a
2017 08 21 17:00 271.7 0.0 0.00 88.3 31.3 60.93 n/a
2017 08 21 18:00 271.6 0.0 0.00 87.0 30.6 62.33 n/a
2017 08 21 19:00 272.8 0.0 0.00 83.9 28.9 69.09 n/a
2017 08 21 20:00 273.6 0.0 0.00 81.2 27.4 74.79 n/a
2017 08 21 21:00 274.3 0.0 0.00 79.7 26.5 78.06 n/a
2017 08 21 22:00 274.3 0.0 0.00 79.6 26.4 77.97 n/a
2017 08 21 23:00 274.3 0.0 0.00 79.4 26.3 77.83 n/a
2017 08 21 24:00 277.3 0.0 0.00 79.1 26.1 79.99 n/a
2017 08 22 1:00 Wet 299.1 0.0 0.00 73.7 23.1 86.2 n/a
2017 08 22 2:00 Wet 397.3 1.1 27.94 69.9 21.1 92.4 n/a
2017 08 22 3:00 Wet 517.2 0.8 20.83 67.6 19.8 99 n/a
2017 08 22 4:00 Wet 531.4 1.2 30.23 66.6 19.2 99.2 n/a
2017 08 22 5:00 Wet 419.2 0.1 3.05 65.9 18.8 99.3 n/a
2017 08 22 6:00 Wet 386.2 0.1 1.52 66.3 19.1 99.4 n/a
2017 08 22 7:00 Wet 347.4 0.0 0.51 66.0 18.9 99.4 n/a
2017 08 22 8:00 Wet 310.0 0.0 0.00 66.2 19.0 99.4 n/a
2017 08 22 9:00 277.8 0.0 0.00 68.2 20.1 98.8 n/a
2017 08 22 10:00 274.6 0.0 0.00 70.4 21.4 92.1 n/a
2017 08 22 11:00 272.7 0.0 0.00 74.4 23.6 81.4 n/a
2017 08 22 12:00 273.0 0.0 0.00 76.5 24.7 76.05 n/a
2017 08 22 13:00 272.9 0.0 0.00 77.4 25.2 70.27 n/a
2017 08 22 14:00 272.6 0.0 0.00 78.4 25.8 65.69 n/a
2017 08 22 15:00 272.3 0.0 0.00 79.3 26.3 63.89 n/a
2017 08 22 16:00 272.3 0.0 0.00 80.0 26.6 60.47 n/a
2017 08 22 17:00 271.8 0.0 0.00 80.0 26.7 55.87 n/a
2017 08 22 18:00 271.7 0.0 0.00 78.7 26.0 58.18 n/a
2017 08 22 19:00 272.8 0.0 0.00 75.2 24.0 65.57 n/a
2017 08 22 20:00 273.7 0.0 0.00 71.7 22.0 72.46 n/a
2017 08 22 21:00 274.4 0.0 0.00 69.0 20.6 77.31 n/a
2017 08 22 22:00 274.4 0.0 0.00 66.8 19.3 76.7 n/a
2017 08 22 23:00 274.4 0.0 0.00 64.8 18.2 73.89 n/a
2017 08 22 24:00 274.4 0.0 0.00 63.0 17.2 74.06 n/a
2017 08 23 1:00 274.9 0.0 0.00 61.0 16.1 78.29 n/a
2017 08 23 2:00 275.1 0.0 0.00 59.7 15.4 79.75 n/a
2017 08 23 3:00 276.1 0.0 0.00 58.5 14.7 81.9 n/a
2017 08 23 4:00 276.3 0.0 0.00 57.4 14.1 83.4 n/a
2017 08 23 5:00 276.7 0.0 0.00 56.8 13.8 84.2 n/a
2017 08 23 6:00 281.4 0.0 0.00 56.1 13.4 86.2 n/a
2017 08 23 7:00 Wet 285.5 0.0 0.00 57.7 14.3 83.5 n/a
2017 08 23 8:00 272.7 0.0 0.00 64.4 18.0 67.92 n/a
2017 08 23 9:00 271.5 0.0 0.00 68.5 20.3 60.57 n/a
2017 08 23 10:00 271.1 0.0 0.00 71.0 21.7 53.26 n/a
2017 08 23 11:00 270.7 0.0 0.00 72.3 22.4 47.73 n/a
2017 08 23 12:00 270.5 0.0 0.00 73.8 23.2 45.96 n/a
2017 08 23 13:00 270.6 0.0 0.00 74.7 23.7 45.13 n/a
2017 08 23 14:00 270.8 0.0 0.00 75.6 24.2 45.54 n/a
2017 08 23 15:00 270.8 0.0 0.00 76.4 24.6 44.57 n/a
2017 08 23 16:00 270.9 0.0 0.00 76.6 24.8 44.65 n/a
2017 08 23 17:00 270.4 0.0 0.00 76.3 24.6 44.64 n/a
2017 08 23 18:00 270.2 0.0 0.00 75.7 24.3 45.31 n/a
2017 08 23 19:00 271.0 0.0 0.00 73.1 22.8 51.68 n/a
2017 08 23 20:00 273.7 0.0 0.00 66.8 19.3 68.18 n/a
2017 08 23 21:00 275.5 0.0 0.00 64.1 17.8 77.6 n/a
2017 08 23 22:00 278.9 0.0 0.00 62.4 16.9 82.8 n/a
2017 08 23 23:00 Wet 285.9 0.0 0.00 61.5 16.4 83.8 n/a
2017 08 23 24:00 278.5 0.0 0.00 61.8 16.6 80.8 n/a
2017 08 24 1:00 276.6 0.0 0.00 60.9 16.1 79.89 n/a
2017 08 24 2:00 Wet 288.6 0.0 0.00 59.5 15.3 84.4 n/a
2017 08 24 3:00 Wet 336.0 0.0 0.00 58.0 14.5 89.4 n/a
2017 08 24 4:00 Wet 376.5 0.0 0.00 57.0 13.9 92.1 n/a
2017 08 24 5:00 Wet 354.9 0.0 0.00 56.3 13.5 93.6 n/a
2017 08 24 6:00 Wet 344.7 0.0 0.00 56.5 13.6 93.2 n/a
2017 08 24 7:00 Wet 300.4 0.0 0.00 59.1 15.1 87.4 n/a
2017 08 24 8:00 272.8 0.0 0.00 65.7 18.7 70.93 n/a
2017 08 24 9:00 271.7 0.0 0.00 69.7 20.9 61.7 n/a
2017 08 24 10:00 271.0 0.0 0.00 73.0 22.8 55.31 n/a
2017 08 24 11:00 270.7 0.0 0.00 74.4 23.6 51.89 n/a
2017 08 24 12:00 270.5 0.0 0.00 75.7 24.3 51.05 n/a
2017 08 24 13:00 270.2 0.0 0.00 76.7 24.8 50.47 n/a
2017 08 24 14:00 270.4 0.0 0.00 77.8 25.5 50 n/a
2017 08 24 15:00 270.3 0.0 0.00 77.8 25.4 48.55 n/a
2017 08 24 16:00 270.3 0.0 0.00 77.8 25.5 49.92 n/a
2017 08 24 17:00 270.6 0.0 0.00 77.3 25.2 52.58 n/a
2017 08 24 18:00 271.8 0.0 0.00 74.7 23.7 61.81 n/a
2017 08 24 19:00 272.7 0.0 0.00 72.3 22.4 68.45 n/a
2017 08 24 20:00 274.0 0.0 0.00 69.3 20.8 75.03 n/a
2017 08 24 21:00 274.4 0.0 0.00 67.7 19.8 76.2 n/a
2017 08 24 22:00 274.4 0.0 0.00 66.9 19.4 75.13 n/a
2017 08 24 23:00 274.4 0.0 0.00 65.8 18.8 77.91 n/a
2017 08 24 24:00 275.0 0.0 0.00 65.4 18.5 79.18 n/a
2017 08 25 1:00 275.1 0.0 0.00 64.7 18.2 80.4 n/a
2017 08 25 2:00 275.1 0.0 0.00 64.5 18.1 81 n/a
2017 08 25 3:00 276.0 0.0 0.00 64.1 17.9 81.8 n/a
2017 08 25 4:00 275.3 0.0 0.00 64.3 17.9 81 n/a
2017 08 25 5:00 275.5 0.0 0.00 64.1 17.8 81.7 n/a
2017 08 25 6:00 278.8 0.0 0.00 62.3 16.8 86.8 n/a
2017 08 25 7:00 275.9 0.0 0.00 63.0 17.3 85 n/a
2017 08 25 8:00 273.4 0.0 0.00 67.2 19.6 75.79 n/a
2017 08 25 9:00 272.4 0.0 0.00 70.4 21.3 69.92 n/a
2017 08 25 10:00 271.5 0.0 0.00 73.8 23.2 60.45 n/a
2017 08 25 11:00 270.9 0.0 0.00 75.9 24.4 55.6 n/a
2017 08 25 12:00 270.9 0.0 0.00 76.9 24.9 53.27 n/a
2017 08 25 13:00 270.9 0.0 0.00 77.9 25.5 52.33 n/a
2017 08 25 14:00 270.9 0.0 0.00 77.9 25.5 49.38 n/a
2017 08 25 15:00 270.8 0.0 0.00 78.5 25.8 50.61 n/a
2017 08 25 16:00 270.9 0.0 0.00 77.7 25.4 52.97 n/a
2017 08 25 17:00 271.1 0.0 0.00 77.2 25.1 57.64 n/a
2017 08 25 18:00 271.8 0.0 0.00 75.8 24.3 61.08 n/a
2017 08 25 19:00 272.4 0.0 0.00 74.5 23.6 65.87 n/a
2017 08 25 20:00 274.2 0.0 0.00 71.1 21.7 74.8 n/a
2017 08 25 21:00 275.5 0.0 0.00 68.9 20.5 79.55 n/a
2017 08 25 22:00 277.1 0.0 0.00 67.0 19.4 83.6 n/a
2017 08 25 23:00 277.6 0.0 0.00 65.9 18.9 84.8 n/a
2017 08 25 24:00 276.4 0.0 0.00 65.7 18.7 84.4 n/a
2017 08 26 1:00 275.8 0.0 0.00 66.0 18.9 82.5 n/a
2017 08 26 2:00 275.4 0.0 0.00 66.4 19.1 80.7 n/a
2017 08 26 3:00 275.4 0.0 0.00 66.4 19.1 80.9 n/a
2017 08 26 4:00 276.4 0.0 0.00 65.5 18.6 83.5 n/a
2017 08 26 5:00 277.5 0.0 0.00 64.3 17.9 86.4 n/a
2017 08 26 6:00 278.3 0.0 0.00 63.7 17.6 87.6 n/a
2017 08 26 7:00 276.8 0.0 0.00 64.2 17.9 86.3 n/a
2017 08 26 8:00 273.0 0.0 0.00 69.0 20.6 75.06 n/a
2017 08 26 9:00 272.0 0.0 0.00 72.8 22.7 66.53 n/a
2017 08 26 10:00 271.6 0.0 0.00 75.1 24.0 62.81 n/a
2017 08 26 11:00 271.5 0.0 0.00 77.3 25.2 60.23 n/a
2017 08 26 12:00 271.1 0.0 0.00 79.1 26.2 56.47 n/a
2017 08 26 13:00 270.9 0.0 0.00 80.7 27.1 53.29 n/a
2017 08 26 14:00 271.0 0.0 0.00 81.4 27.4 52.35 n/a
2017 08 26 15:00 271.0 0.0 0.00 82.3 27.9 50.01 n/a
2017 08 26 16:00 271.0 0.0 0.00 82.2 27.9 49.58 n/a
2017 08 26 17:00 270.3 0.0 0.00 82.4 28.0 47.53 n/a
2017 08 26 18:00 270.4 0.0 0.00 81.3 27.4 50.69 n/a
2017 08 26 19:00 271.5 0.0 0.00 77.7 25.4 56.94 n/a
2017 08 26 20:00 272.7 0.0 0.00 73.9 23.3 62.98 n/a
2017 08 26 21:00 273.3 0.0 0.00 71.9 22.2 68.15 n/a
2017 08 26 22:00 273.8 0.0 0.00 71.0 21.6 71.86 n/a
2017 08 26 23:00 274.5 0.0 0.00 69.6 20.9 76.17 n/a
2017 08 26 24:00 275.6 0.0 0.00 68.1 20.1 81.2 n/a
2017 08 27 1:00 276.4 0.0 0.00 67.5 19.7 82.9 n/a
2017 08 27 2:00 276.6 0.0 0.00 67.0 19.4 84.7 n/a
2017 08 27 3:00 276.9 0.0 0.00 66.5 19.2 87 n/a
2017 08 27 4:00 279.3 0.0 0.00 65.8 18.8 88.8 n/a
2017 08 27 5:00 Wet 284.2 0.0 0.00 65.2 18.4 90.1 n/a
2017 08 27 6:00 Wet 291.2 0.0 0.00 64.7 18.2 90.8 n/a
2017 08 27 7:00 279.9 0.0 0.00 65.8 18.8 88.3 n/a
2017 08 27 8:00 273.9 0.0 0.00 69.2 20.7 83 n/a
2017 08 27 9:00 273.2 0.0 0.00 72.7 22.6 78.65 n/a
2017 08 27 10:00 272.9 0.0 0.00 75.4 24.1 76.17 n/a
2017 08 27 11:00 272.7 0.0 0.00 76.8 24.9 73.37 n/a
2017 08 27 12:00 272.8 0.0 0.00 75.9 24.4 73.07 n/a
2017 08 27 13:00 273.6 0.0 0.00 75.1 23.9 74.5 n/a
2017 08 27 14:00 273.3 0.0 0.00 74.1 23.4 76.42 n/a
2017 08 27 15:00 277.8 0.0 0.00 72.2 22.4 78.13 n/a
2017 08 27 16:00 Wet 399.4 0.1 2.29 70.2 21.2 84.3 n/a
2017 08 27 17:00 280.1 0.0 0.00 72.6 22.5 78.84 n/a
2017 08 27 18:00 273.1 0.0 0.00 74.1 23.4 74.13 n/a
2017 08 27 19:00 275.5 0.0 0.00 72.1 22.3 79.72 n/a
2017 08 27 20:00 Wet 332.1 0.0 0.00 67.8 19.9 92.8 n/a
2017 08 27 21:00 Wet 370.9 0.0 0.00 66.5 19.2 95.4 n/a
2017 08 27 22:00 Wet 357.7 0.0 0.00 65.6 18.7 95.6 n/a
2017 08 27 23:00 Wet 353.7 0.0 0.00 64.9 18.3 95.3 n/a
2017 08 27 24:00 Wet 356.8 0.0 0.00 63.4 17.4 96.5 n/a
2017 08 28 1:00 Wet 358.5 0.0 0.00 62.6 17.0 97.2 n/a
2017 08 28 2:00 Wet 356.6 0.0 0.00 61.0 16.1 97.7 n/a
2017 08 28 3:00 Wet 359.5 0.0 0.00 59.9 15.5 98.3 n/a
2017 08 28 4:00 Wet 358.6 0.0 0.00 59.8 15.4 98.5 n/a
2017 08 28 5:00 Wet 356.5 0.0 0.00 59.4 15.2 98.6 n/a
2017 08 28 6:00 Wet 357.0 0.0 0.00 58.7 14.8 98.7 n/a
2017 08 28 7:00 Wet 336.9 0.0 0.00 58.8 14.9 98.7 n/a
2017 08 28 8:00 Wet 284.1 0.0 0.00 63.7 17.6 95.8 n/a
2017 08 28 9:00 275.4 0.0 0.00 69.9 21.1 85.9 n/a
2017 08 28 10:00 273.3 0.0 0.00 75.3 24.0 73.05 n/a
2017 08 28 11:00 272.5 0.0 0.00 77.2 25.1 66.38 n/a
2017 08 28 12:00 272.3 0.0 0.00 77.3 25.2 61.59 n/a
2017 08 28 13:00 271.7 0.0 0.00 79.1 26.2 54.39 n/a
2017 08 28 14:00 271.6 0.0 0.00 79.1 26.2 55.29 n/a
2017 08 28 15:00 271.5 0.0 0.00 79.0 26.1 52.15 n/a
2017 08 28 16:00 271.0 0.0 0.00 80.2 26.8 46.3 n/a
2017 08 28 17:00 270.8 0.0 0.00 78.7 25.9 43.92 n/a
2017 08 28 18:00 270.9 0.0 0.00 77.8 25.4 46.54 n/a
2017 08 28 19:00 271.5 0.0 0.00 74.6 23.7 53.51 n/a
2017 08 28 20:00 273.2 0.0 0.00 70.1 21.2 66.59 n/a
2017 08 28 21:00 273.7 0.0 0.00 68.6 20.4 70.85 n/a
2017 08 28 22:00 274.0 0.0 0.00 66.8 19.3 74.98 n/a
2017 08 28 23:00 274.9 0.0 0.00 64.9 18.3 80 n/a
2017 08 28 24:00 277.7 0.0 0.00 62.9 17.2 84.9 n/a
2017 08 29 1:00 276.4 0.0 0.00 62.4 16.9 85 n/a
2017 08 29 2:00 276.6 0.0 0.00 61.9 16.6 85.3 n/a
2017 08 29 3:00 Wet 288.8 0.0 0.00 60.5 15.9 87.8 n/a
2017 08 29 4:00 Wet 358.2 0.0 0.00 58.5 14.7 93.2 n/a
2017 08 29 5:00 Wet 393.6 0.0 0.00 58.4 14.7 93.6 n/a
2017 08 29 6:00 Wet 330.8 0.0 0.00 58.9 15.0 90.3 n/a
2017 08 29 7:00 282.1 0.0 0.00 60.1 15.6 86.9 n/a
2017 08 29 8:00 274.0 0.0 0.00 64.9 18.3 77.9 n/a
2017 08 29 9:00 273.4 0.0 0.00 67.6 19.8 74.47 n/a
2017 08 29 10:00 272.7 0.0 0.00 70.2 21.2 66.88 n/a
2017 08 29 11:00 272.3 0.0 0.00 71.1 21.7 63.45 n/a
2017 08 29 12:00 271.9 0.0 0.00 72.6 22.5 59.68 n/a
2017 08 29 13:00 271.4 0.0 0.00 73.6 23.1 57.47 n/a
2017 08 29 14:00 271.3 0.0 0.00 74.4 23.6 55.37 n/a
2017 08 29 15:00 271.3 0.0 0.00 74.1 23.4 55.82 n/a
2017 08 29 16:00 271.3 0.0 0.00 74.1 23.4 57.06 n/a
2017 08 29 17:00 271.5 0.0 0.00 73.9 23.3 59.25 n/a
2017 08 29 18:00 271.9 0.0 0.00 73.2 22.9 61.06 n/a
2017 08 29 19:00 272.2 0.0 0.00 72.4 22.4 63.23 n/a
2017 08 29 20:00 274.7 0.0 0.00 68.5 20.3 73.96 n/a
2017 08 29 21:00 278.3 0.0 0.00 65.8 18.8 82.2 n/a
2017 08 29 22:00 277.2 0.0 0.00 65.1 18.4 82.8 n/a
2017 08 29 23:00 278.5 0.0 0.00 64.2 17.9 84.4 n/a
2017 08 29 24:00 Wet 311.8 0.0 0.00 61.4 16.3 90.6 n/a
2017 08 30 1:00 Wet 384.8 0.0 0.00 59.8 15.4 95 n/a
2017 08 30 2:00 Wet 374.9 0.0 0.00 60.2 15.7 95.9 n/a
2017 08 30 3:00 Wet 331.1 0.0 0.00 61.7 16.5 90.5 n/a
2017 08 30 4:00 Wet 311.7 0.0 0.00 61.2 16.2 90.7 n/a
2017 08 30 5:00 Wet 311.3 0.0 0.00 60.3 15.7 92 n/a
2017 08 30 6:00 Wet 301.0 0.0 0.00 60.1 15.6 91.7 n/a
2017 08 30 7:00 281.3 0.0 0.00 61.0 16.1 89.8 n/a
2017 08 30 8:00 274.4 0.0 0.00 65.4 18.5 81.9 n/a
2017 08 30 9:00 273.4 0.0 0.00 69.7 20.9 75.1 n/a
2017 08 30 10:00 272.7 0.0 0.00 73.5 23.1 68.38 n/a
2017 08 30 11:00 271.9 0.0 0.00 75.9 24.4 61.13 n/a
2017 08 30 12:00 271.9 0.0 0.00 76.4 24.7 59.44 n/a
2017 08 30 13:00 271.3 0.0 0.00 78.4 25.8 54.24 n/a
2017 08 30 14:00 271.1 0.0 0.00 79.0 26.1 53.27 n/a
2017 08 30 15:00 271.2 0.0 0.00 78.7 25.9 53.79 n/a
2017 08 30 16:00 271.3 0.0 0.00 79.1 26.2 51.34 n/a
2017 08 30 17:00 270.9 0.0 0.00 79.3 26.3 50.54 n/a
2017 08 30 18:00 270.9 0.0 0.00 78.3 25.8 53 n/a
2017 08 30 19:00 272.1 0.0 0.00 75.0 23.9 61.89 n/a
2017 08 30 20:00 273.7 0.0 0.00 70.8 21.6 72.65 n/a
2017 08 30 21:00 274.4 0.0 0.00 69.1 20.6 75.08 n/a
2017 08 30 22:00 274.5 0.0 0.00 67.8 19.9 77.88 n/a
2017 08 30 23:00 275.0 0.0 0.00 66.6 19.2 80.5 n/a
2017 08 30 24:00 275.4 0.0 0.00 65.4 18.5 82.8 n/a
2017 08 31 1:00 276.6 0.0 0.00 64.0 17.8 85.9 n/a
2017 08 31 2:00 277.6 0.0 0.00 63.0 17.3 87.5 n/a
2017 08 31 3:00 276.9 0.0 0.00 62.7 17.1 86.5 n/a
2017 08 31 4:00 278.0 0.0 0.00 61.6 16.4 88.9 n/a
2017 08 31 5:00 283.5 0.0 0.00 60.6 15.9 91.1 n/a
2017 08 31 6:00 Wet 284.1 0.0 0.00 60.3 15.7 91.4 n/a
2017 08 31 7:00 278.0 0.0 0.00 61.2 16.2 89.6 n/a
2017 08 31 8:00 274.6 0.0 0.00 65.5 18.6 81.7 n/a
2017 08 31 9:00 273.6 0.0 0.00 69.4 20.8 75.73 n/a
2017 08 31 10:00 272.9 0.0 0.00 72.9 22.7 68.12 n/a
2017 08 31 11:00 272.3 0.0 0.00 74.7 23.7 63.36 n/a
2017 08 31 12:00 271.8 0.0 0.00 76.0 24.4 58.5 n/a
2017 08 31 13:00 271.5 0.0 0.00 77.0 25.0 56.79 n/a
2017 08 31 14:00 271.4 0.0 0.00 77.3 25.2 55.41 n/a
2017 08 31 15:00 271.3 0.0 0.00 77.8 25.4 52.77 n/a
2017 08 31 16:00 271.3 0.0 0.00 78.5 25.8 51.63 n/a
2017 08 31 17:00 270.9 0.0 0.00 78.0 25.6 52.8 n/a
2017 08 31 18:00 271.4 0.0 0.00 76.6 24.8 56.65 n/a
2017 08 31 19:00 272.6 0.0 0.00 73.5 23.0 64.85 n/a
2017 08 31 20:00 273.7 0.0 0.00 70.3 21.3 72.64 n/a
2017 08 31 21:00 274.5 0.0 0.00 68.6 20.3 77.37 n/a
2017 08 31 22:00 275.0 0.0 0.00 67.6 19.8 79.86 n/a
2017 08 31 23:00 275.1 0.0 0.00 66.7 19.3 81.6 n/a
2017 08 31 24:00 276.0 0.0 0.00 65.2 18.4 84.9 n/a
2017 09 01 1:00 277.6 0.0 0.00 64.1 17.9 87.9 n/a
2017 09 01 2:00 282.6 0.0 0.00 63.3 17.4 90.4 n/a
2017 09 01 3:00 Wet 313.6 0.0 0.00 62.4 16.9 93.1 n/a
2017 09 01 4:00 Wet 342.8 0.0 0.00 62.0 16.7 93.7 n/a
2017 09 01 5:00 Wet 363.0 0.0 0.00 61.1 16.2 94.7 n/a
2017 09 01 6:00 Wet 360.3 0.0 0.00 60.1 15.6 95.5 n/a
2017 09 01 7:00 Wet 318.6 0.0 0.00 60.4 15.8 93.9 n/a
2017 09 01 8:00 277.2 0.0 0.00 62.5 17.0 87.2 n/a
2017 09 01 9:00 274.2 0.0 0.00 65.4 18.6 80.4 n/a
2017 09 01 10:00 273.2 0.0 0.00 68.6 20.4 70.88 n/a
2017 09 01 11:00 272.2 0.0 0.00 71.2 21.8 62.18 n/a
2017 09 01 12:00 271.8 0.0 0.00 73.3 22.9 57.66 n/a
2017 09 01 13:00 271.6 0.0 0.00 75.1 23.9 54.28 n/a
2017 09 01 14:00 271.4 0.0 0.00 76.4 24.6 52.82 n/a
2017 09 01 15:00 271.2 0.0 0.00 76.6 24.8 50.5 n/a
2017 09 01 16:00 271.3 0.0 0.00 77.1 25.1 49.81 n/a
2017 09 01 17:00 270.7 0.0 0.00 77.3 25.2 48.8 n/a
2017 09 01 18:00 271.3 0.0 0.00 74.2 23.4 52.36 n/a
2017 09 01 19:00 272.5 0.0 0.00 70.3 21.3 60.81 n/a
2017 09 01 20:00 273.8 0.0 0.00 66.5 19.2 67.78 n/a
2017 09 01 21:00 274.8 0.0 0.00 64.1 17.8 74.42 n/a
2017 09 01 22:00 275.4 0.0 0.00 62.5 16.9 79.06 n/a
2017 09 01 23:00 274.7 0.0 0.00 63.2 17.4 76.99 n/a
2017 09 01 24:00 274.4 0.0 0.00 63.4 17.5 75.35 n/a
2017 09 02 1:00 274.7 0.0 0.00 62.9 17.2 76.95 n/a
2017 09 02 2:00 276.3 0.0 0.00 62.3 16.8 80.8 n/a
2017 09 02 3:00 275.3 0.0 0.00 62.0 16.7 82.1 n/a
2017 09 02 4:00 275.4 0.0 0.00 62.0 16.7 82.5 n/a
2017 09 02 5:00 277.4 0.0 0.00 61.3 16.3 86.3 n/a
2017 09 02 6:00 277.3 0.0 0.00 60.7 16.0 88.3 n/a
2017 09 02 7:00 275.6 0.0 0.00 62.1 16.7 83.8 n/a
2017 09 02 8:00 273.1 0.0 0.00 66.6 19.2 73.19 n/a
2017 09 02 9:00 272.1 0.0 0.00 70.4 21.3 65.89 n/a
2017 09 02 10:00 271.9 0.0 0.00 72.2 22.3 64.57 n/a
2017 09 02 11:00 271.5 0.0 0.00 75.4 24.1 61.1 n/a
2017 09 02 12:00 271.3 0.0 0.00 77.1 25.1 57.28 n/a
2017 09 02 13:00 271.0 0.0 0.00 78.7 26.0 55.23 n/a
2017 09 02 14:00 270.9 0.0 0.00 80.4 26.9 53.88 n/a
2017 09 02 15:00 270.9 0.0 0.00 81.2 27.3 53.14 n/a
2017 09 02 16:00 271.0 0.0 0.00 81.5 27.5 53 n/a
2017 09 02 17:00 270.9 0.0 0.00 81.5 27.5 53.03 n/a
2017 09 02 18:00 271.3 0.0 0.00 80.1 26.7 57.5 n/a
2017 09 02 19:00 272.8 0.0 0.00 76.6 24.8 66.82 n/a
2017 09 02 20:00 274.5 0.0 0.00 72.8 22.7 74.49 n/a
2017 09 02 21:00 274.6 0.0 0.00 71.4 21.9 77.42 n/a
2017 09 02 22:00 275.2 0.0 0.00 69.8 21.0 82.1 n/a
2017 09 02 23:00 275.5 0.0 0.00 69.0 20.6 84.2 n/a
2017 09 02 24:00 275.7 0.0 0.00 68.4 20.2 83.6 n/a
2017 09 03 1:00 275.7 0.0 0.00 67.7 19.8 82.7 n/a
2017 09 03 2:00 275.7 0.0 0.00 67.1 19.5 83.2 n/a
2017 09 03 3:00 277.1 0.0 0.00 66.3 19.1 84.7 n/a
2017 09 03 4:00 280.0 0.0 0.00 65.4 18.6 87 n/a
2017 09 03 5:00 278.0 0.0 0.00 64.6 18.1 88.1 n/a
2017 09 03 6:00 277.7 0.0 0.00 64.1 17.8 87.6 n/a
2017 09 03 7:00 276.4 0.0 0.00 64.6 18.1 86.6 n/a
2017 09 03 8:00 274.0 0.0 0.00 67.6 19.8 82.6 n/a
2017 09 03 9:00 273.6 0.0 0.00 70.9 21.6 81.1 n/a
2017 09 03 10:00 273.0 0.0 0.00 74.8 23.8 77.16 n/a
2017 09 03 11:00 272.2 0.0 0.00 78.9 26.0 70.27 n/a
2017 09 03 12:00 271.7 0.0 0.00 81.9 27.7 63.01 n/a
2017 09 03 13:00 271.2 0.0 0.00 83.7 28.7 52.95 n/a
2017 09 03 14:00 270.8 0.0 0.00 85.3 29.6 49.15 n/a
2017 09 03 15:00 270.6 0.0 0.00 86.1 30.0 48.92 n/a
2017 09 03 16:00 270.8 0.0 0.00 86.1 30.1 47.28 n/a
2017 09 03 17:00 269.9 0.0 0.00 87.3 30.7 46.08 n/a
2017 09 03 18:00 270.5 0.0 0.00 84.2 29.0 51.19 n/a
2017 09 03 19:00 272.4 0.0 0.00 80.0 26.7 61.33 n/a
2017 09 03 20:00 273.6 0.0 0.00 77.0 25.0 65.6 n/a
2017 09 03 21:00 274.1 0.0 0.00 75.1 24.0 71.52 n/a
2017 09 03 22:00 275.4 0.0 0.00 72.7 22.6 78.51 n/a
2017 09 03 23:00 275.5 0.0 0.00 71.8 22.1 81 n/a
2017 09 03 24:00 276.2 0.0 0.00 71.1 21.7 84.8 n/a
2017 09 04 1:00 276.6 0.0 0.00 70.3 21.3 86.8 n/a
2017 09 04 2:00 277.6 0.0 0.00 69.2 20.7 87.9 n/a
2017 09 04 3:00 277.7 0.0 0.00 68.5 20.3 89.2 n/a
2017 09 04 4:00 279.6 0.0 0.00 67.7 19.8 90.3 n/a
2017 09 04 5:00 Wet 293.3 0.0 0.00 66.7 19.3 92.9 n/a
2017 09 04 6:00 Wet 326.0 0.0 0.00 65.8 18.8 94.9 n/a
2017 09 04 7:00 Wet 329.0 0.0 0.00 66.7 19.3 95.1 n/a
2017 09 04 8:00 279.5 0.0 0.00 71.0 21.6 89.1 n/a
2017 09 04 9:00 274.0 0.0 0.00 75.4 24.1 80 n/a
2017 09 04 10:00 272.6 0.0 0.00 79.8 26.5 70.02 n/a
2017 09 04 11:00 271.9 0.0 0.00 83.0 28.3 63.6 n/a
2017 09 04 12:00 271.3 0.0 0.00 85.5 29.7 58.19 n/a
2017 09 04 13:00 270.9 0.0 0.00 87.0 30.6 55.41 n/a
2017 09 04 14:00 270.9 0.0 0.00 88.8 31.5 53.6 n/a
2017 09 04 15:00 270.8 0.0 0.00 89.2 31.8 50.88 n/a
2017 09 04 16:00 270.8 0.0 0.00 89.2 31.8 51.34 n/a
2017 09 04 17:00 271.2 0.0 0.00 86.8 30.5 56.17 n/a
2017 09 04 18:00 271.9 0.0 0.00 82.6 28.1 62.73 n/a
2017 09 04 19:00 272.6 0.0 0.00 78.5 25.8 67.59 n/a
2017 09 04 20:00 272.4 0.0 0.00 76.2 24.6 60.59 n/a
2017 09 04 21:00 272.2 0.0 0.00 73.6 23.1 57.86 n/a
2017 09 04 22:00 272.3 0.0 0.00 71.4 21.9 57.27 n/a
2017 09 04 23:00 272.1 0.0 0.00 70.4 21.3 56.44 n/a
2017 09 04 24:00 272.3 0.0 0.00 69.3 20.7 57.92 n/a
2017 09 05 1:00 272.3 0.0 0.00 68.1 20.1 60.08 n/a
2017 09 05 2:00 272.3 0.0 0.00 66.5 19.2 61.14 n/a
2017 09 05 3:00 272.8 0.0 0.00 64.4 18.0 65.86 n/a
2017 09 05 4:00 273.0 0.0 0.00 63.3 17.4 68.35 n/a
2017 09 05 5:00 273.6 0.0 0.00 61.4 16.4 73.4 n/a
2017 09 05 6:00 273.8 0.0 0.00 60.4 15.8 76.67 n/a
2017 09 05 7:00 273.9 0.0 0.00 60.3 15.7 77.62 n/a
2017 09 05 8:00 273.7 0.0 0.00 61.2 16.2 76.49 n/a
2017 09 05 9:00 272.7 0.0 0.00 64.7 18.1 64.85 n/a
2017 09 05 10:00 271.5 0.0 0.00 68.8 20.5 50.63 n/a
2017 09 05 11:00 270.5 0.0 0.00 71.6 22.0 37.11 n/a
2017 09 05 12:00 269.7 0.0 0.00 72.9 22.7 29.7 n/a
2017 09 05 13:00 269.5 0.0 0.00 72.6 22.5 30.65 n/a
2017 09 05 14:00 269.4 0.0 0.00 72.5 22.5 31.43 n/a
2017 09 05 15:00 269.5 0.0 0.00 72.5 22.5 33.03 n/a
2017 09 05 16:00 269.5 0.0 0.00 72.7 22.6 32.95 n/a
2017 09 05 17:00 269.4 0.0 0.00 71.8 22.1 34.38 n/a
2017 09 05 18:00 269.9 0.0 0.00 68.6 20.3 38.88 n/a
2017 09 05 19:00 270.7 0.0 0.00 65.1 18.4 46.43 n/a
2017 09 05 20:00 271.2 0.0 0.00 61.6 16.5 50.47 n/a
2017 09 05 21:00 271.6 0.0 0.00 59.3 15.2 51.95 n/a
2017 09 05 22:00 271.9 0.0 0.00 58.0 14.4 54.98 n/a
2017 09 05 23:00 272.5 0.0 0.00 55.4 13.0 61.83 n/a
2017 09 05 24:00 274.6 0.0 0.00 52.1 11.2 72.03 n/a
2017 09 06 1:00 276.5 0.0 0.00 50.2 10.1 77.27 n/a
2017 09 06 2:00 277.2 0.0 0.00 49.0 9.4 81 n/a
2017 09 06 3:00 278.3 0.0 0.00 48.4 9.1 82.6 n/a
2017 09 06 4:00 282.0 0.0 0.00 47.6 8.7 85.1 n/a
2017 09 06 5:00 Wet 292.2 0.0 0.00 47.5 8.6 84.9 n/a
2017 09 06 6:00 279.4 0.0 0.00 47.1 8.4 84.7 n/a
2017 09 06 7:00 276.7 0.0 0.00 47.5 8.6 85.2 n/a
2017 09 06 8:00 274.5 0.0 0.00 51.9 11.1 79.13 n/a
2017 09 06 9:00 273.1 0.0 0.00 57.8 14.4 68.16 n/a
2017 09 06 10:00 272.0 0.0 0.00 63.0 17.2 54.73 n/a
2017 09 06 11:00 271.0 0.0 0.00 66.1 19.0 43.77 n/a
2017 09 06 12:00 270.5 0.0 0.00 67.3 19.6 40.93 n/a
2017 09 06 13:00 270.3 0.0 0.00 68.7 20.4 38.32 n/a
2017 09 06 14:00 269.9 0.0 0.00 69.9 21.0 37.14 n/a
2017 09 06 15:00 269.8 0.0 0.00 68.9 20.5 37.89 n/a
2017 09 06 16:00 269.9 0.0 0.00 69.6 20.9 36.98 n/a
2017 09 06 17:00 269.6 0.0 0.00 70.2 21.2 36.04 n/a
2017 09 06 18:00 269.6 0.0 0.00 69.8 21.0 37.45 n/a
2017 09 06 19:00 271.3 0.0 0.00 65.2 18.5 50.15 n/a
2017 09 06 20:00 272.9 0.0 0.00 59.4 15.2 66.64 n/a
2017 09 06 21:00 273.8 0.0 0.00 57.2 14.0 69.97 n/a
2017 09 06 22:00 276.0 0.0 0.00 55.1 12.8 75.14 n/a
2017 09 06 23:00 276.1 0.0 0.00 53.6 12.0 78.28 n/a
2017 09 06 24:00 278.3 0.0 0.00 52.3 11.3 81.1 n/a
2017 09 07 1:00 Wet 295.3 0.0 0.00 50.6 10.3 88.1 n/a
2017 09 07 2:00 Wet 350.8 0.0 0.00 50.0 10.0 92.8 n/a
2017 09 07 3:00 Wet 362.1 0.0 0.00 49.4 9.7 92.7 n/a
2017 09 07 4:00 Wet 350.3 0.0 0.00 48.6 9.2 93.9 n/a
2017 09 07 5:00 Wet 358.2 0.0 0.00 48.1 9.0 94.8 n/a
2017 09 07 6:00 Wet 356.1 0.0 0.00 47.7 8.7 94.8 n/a
2017 09 07 7:00 Wet 337.7 0.0 0.00 49.1 9.5 92.4 n/a
2017 09 07 8:00 Wet 290.1 0.0 0.00 55.2 12.9 80.2 n/a
2017 09 07 9:00 274.7 0.0 0.00 59.5 15.3 70.97 n/a
2017 09 07 10:00 271.7 0.0 0.00 65.1 18.4 59 n/a
2017 09 07 11:00 270.7 0.0 0.00 70.1 21.2 47.54 n/a
2017 09 07 12:00 270.3 0.0 0.00 72.9 22.7 42.73 n/a
2017 09 07 13:00 270.1 0.0 0.00 74.5 23.6 39.84 n/a
2017 09 07 14:00 269.6 0.0 0.00 76.1 24.5 36.27 n/a
2017 09 07 15:00 269.2 0.0 0.00 77.4 25.2 32.37 n/a
2017 09 07 16:00 269.3 0.0 0.00 78.1 25.6 32.38 n/a
2017 09 07 17:00 268.8 0.0 0.00 77.9 25.5 33.59 n/a
2017 09 07 18:00 268.9 0.0 0.00 78.5 25.8 34.02 n/a
2017 09 07 19:00 271.1 0.0 0.00 72.0 22.2 48.28 n/a
2017 09 07 20:00 272.5 0.0 0.00 68.1 20.0 55.94 n/a
2017 09 07 21:00 272.3 0.0 0.00 66.4 19.1 56.13 n/a
2017 09 07 22:00 272.8 0.0 0.00 64.3 18.0 60.69 n/a
2017 09 07 23:00 273.1 0.0 0.00 63.1 17.3 64.46 n/a
2017 09 07 24:00 273.5 0.0 0.00 62.0 16.6 67.41 n/a
2017 09 08 1:00 273.8 0.0 0.00 60.9 16.0 70.25 n/a
2017 09 08 2:00 274.0 0.0 0.00 60.5 15.8 72.38 n/a
2017 09 08 3:00 274.4 0.0 0.00 59.2 15.1 76.23 n/a
2017 09 08 4:00 275.5 0.0 0.00 57.9 14.4 79.5 n/a
2017 09 08 5:00 275.7 0.0 0.00 57.3 14.1 81.1 n/a
2017 09 08 6:00 276.4 0.0 0.00 56.6 13.6 83.2 n/a
2017 09 08 7:00 275.2 0.0 0.00 57.1 13.9 82.7 n/a
2017 09 08 8:00 273.6 0.0 0.00 61.1 16.2 76.13 n/a
2017 09 08 9:00 272.6 0.0 0.00 65.4 18.5 68.98 n/a
2017 09 08 10:00 271.6 0.0 0.00 70.7 21.5 59.64 n/a
2017 09 08 11:00 270.7 0.0 0.00 75.3 24.1 51.35 n/a
2017 09 08 12:00 270.2 0.0 0.00 78.6 25.9 45.77 n/a
2017 09 08 13:00 269.6 0.0 0.00 81.1 27.3 40.16 n/a
2017 09 08 14:00 269.5 0.0 0.00 82.4 28.0 37.27 n/a
2017 09 08 15:00 269.1 0.0 0.00 83.1 28.4 36.56 n/a
2017 09 08 16:00 269.4 0.0 0.00 83.3 28.5 37.27 n/a
2017 09 08 17:00 268.8 0.0 0.00 82.8 28.3 37.72 n/a
2017 09 08 18:00 269.4 0.0 0.00 81.0 27.2 43.04 n/a
2017 09 08 19:00 271.3 0.0 0.00 76.0 24.4 54.98 n/a
2017 09 08 20:00 272.7 0.0 0.00 71.3 21.9 63.19 n/a
2017 09 08 21:00 273.5 0.0 0.00 68.9 20.5 67.52 n/a
2017 09 08 22:00 274.6 0.0 0.00 66.4 19.1 73.73 n/a
2017 09 08 23:00 276.2 0.0 0.00 65.0 18.3 77.22 n/a
2017 09 08 24:00 279.4 0.0 0.00 63.0 17.2 82.6 n/a
2017 09 09 1:00 280.5 0.0 0.00 62.5 16.9 83.7 n/a
2017 09 09 2:00 277.7 0.0 0.00 62.7 17.0 82.7 n/a
2017 09 09 3:00 276.4 0.0 0.00 62.3 16.9 82.4 n/a
2017 09 09 4:00 279.8 0.0 0.00 61.3 16.3 83.4 n/a
2017 09 09 5:00 Wet 290.2 0.0 0.00 59.8 15.4 87.7 n/a
2017 09 09 6:00 Wet 331.7 0.0 0.00 57.7 14.3 92 n/a
2017 09 09 7:00 Wet 342.3 0.0 0.00 58.6 14.8 91 n/a
2017 09 09 8:00 279.7 0.0 0.00 66.1 19.0 74.04 n/a
2017 09 09 9:00 271.6 0.0 0.00 70.7 21.5 64.78 n/a
2017 09 09 10:00 270.5 0.0 0.00 74.7 23.7 56 n/a
2017 09 09 11:00 269.4 0.0 0.00 78.9 26.1 47.15 n/a
2017 09 09 12:00 269.4 0.0 0.00 80.5 26.9 44.2 n/a
2017 09 09 13:00 269.5 0.0 0.00 81.7 27.6 41.97 n/a
2017 09 09 14:00 269.4 0.0 0.00 82.9 28.3 41.21 n/a
2017 09 09 15:00 269.4 0.0 0.00 83.2 28.4 40.54 n/a
2017 09 09 16:00 269.4 0.0 0.00 83.6 28.6 39.19 n/a
2017 09 09 17:00 269.5 0.0 0.00 82.0 27.8 44.51 n/a
2017 09 09 18:00 269.9 0.0 0.00 80.2 26.8 49.07 n/a
2017 09 09 19:00 271.9 0.0 0.00 75.5 24.2 60.92 n/a
2017 09 09 20:00 273.7 0.0 0.00 71.3 21.8 70.22 n/a
2017 09 09 21:00 274.5 0.0 0.00 69.8 21.0 74.26 n/a
2017 09 09 22:00 275.0 0.0 0.00 68.4 20.2 76.72 n/a
2017 09 09 23:00 275.0 0.0 0.00 67.4 19.7 77.81 n/a
2017 09 09 24:00 275.4 0.0 0.00 66.4 19.1 79.43 n/a
2017 09 10 1:00 274.7 0.0 0.00 67.1 19.5 74.09 n/a
2017 09 10 2:00 274.4 0.0 0.00 67.2 19.5 70.84 n/a
2017 09 10 3:00 274.4 0.0 0.00 65.9 18.9 73.31 n/a
2017 09 10 4:00 275.0 0.0 0.00 64.5 18.0 76.8 n/a
2017 09 10 5:00 275.2 0.0 0.00 63.2 17.3 79.16 n/a
2017 09 10 6:00 274.6 0.0 0.00 63.5 17.5 76.8 n/a
2017 09 10 7:00 274.4 0.0 0.00 63.5 17.5 74.54 n/a
2017 09 10 8:00 272.9 0.0 0.00 66.4 19.1 68.48 n/a
2017 09 10 9:00 272.0 0.0 0.00 69.9 21.1 61.83 n/a
2017 09 10 10:00 271.3 0.0 0.00 72.9 22.7 56.03 n/a
2017 09 10 11:00 270.2 0.0 0.00 76.1 24.5 45.98 n/a
2017 09 10 12:00 269.7 0.0 0.00 78.2 25.7 41.74 n/a
2017 09 10 13:00 269.5 0.0 0.00 79.8 26.6 40.92 n/a
2017 09 10 14:00 269.5 0.0 0.00 80.4 26.9 40.93 n/a
2017 09 10 15:00 269.4 0.0 0.00 80.0 26.6 40.48 n/a
2017 09 10 16:00 269.6 0.0 0.00 80.1 26.7 41.08 n/a
2017 09 10 17:00 269.5 0.0 0.00 78.9 26.1 38.62 n/a
2017 09 10 18:00 269.6 0.0 0.00 76.6 24.8 42.76 n/a
2017 09 10 19:00 271.5 0.0 0.00 71.7 22.0 55.17 n/a
2017 09 10 20:00 273.5 0.0 0.00 66.4 19.1 66.79 n/a
2017 09 10 21:00 273.7 0.0 0.00 65.6 18.7 67.41 n/a
2017 09 10 22:00 274.2 0.0 0.00 64.1 17.8 70.09 n/a
2017 09 10 23:00 274.6 0.0 0.00 62.7 17.0 72.57 n/a
2017 09 10 24:00 276.8 0.0 0.00 60.0 15.5 81 n/a
2017 09 11 1:00 281.3 0.0 0.00 58.6 14.8 84.3 n/a
2017 09 11 2:00 Wet 285.9 0.0 0.00 58.8 14.9 85.3 n/a
2017 09 11 3:00 279.4 0.0 0.00 58.0 14.5 83.7 n/a
2017 09 11 4:00 Wet 285.1 0.0 0.00 57.1 14.0 84 n/a
2017 09 11 5:00 281.8 0.0 0.00 56.7 13.7 82.7 n/a
2017 09 11 6:00 Wet 300.2 0.0 0.00 54.9 12.7 86.7 n/a
2017 09 11 7:00 Wet 325.4 0.0 0.00 54.8 12.6 88.1 n/a
2017 09 11 8:00 274.5 0.0 0.00 59.3 15.2 76.69 n/a
2017 09 11 9:00 272.2 0.0 0.00 65.4 18.6 64.1 n/a
2017 09 11 10:00 271.0 0.0 0.00 70.7 21.5 55.17 n/a
2017 09 11 11:00 270.7 0.0 0.00 73.4 23.0 50.61 n/a
2017 09 11 12:00 270.5 0.0 0.00 76.0 24.4 44.49 n/a
2017 09 11 13:00 270.2 0.0 0.00 76.6 24.8 42.54 n/a
2017 09 11 14:00 270.2 0.0 0.00 77.6 25.3 40.79 n/a
2017 09 11 15:00 269.7 0.0 0.00 78.3 25.7 39.3 n/a
2017 09 11 16:00 269.5 0.0 0.00 78.2 25.7 36.62 n/a
2017 09 11 17:00 269.5 0.0 0.00 77.4 25.2 37.43 n/a
2017 09 11 18:00 269.6 0.0 0.00 75.5 24.1 40.61 n/a
2017 09 11 19:00 271.0 0.0 0.00 70.0 21.1 49.27 n/a
2017 09 11 20:00 271.8 0.0 0.00 66.2 19.0 54.95 n/a
2017 09 11 21:00 272.4 0.0 0.00 64.4 18.0 56.8 n/a
2017 09 11 22:00 272.4 0.0 0.00 62.9 17.2 55.98 n/a
2017 09 11 23:00 272.4 0.0 0.00 61.6 16.4 57.08 n/a
2017 09 11 24:00 273.2 0.0 0.00 58.5 14.7 65.46 n/a
2017 09 12 1:00 273.8 0.0 0.00 57.2 14.0 69.56 n/a
2017 09 12 2:00 273.6 0.0 0.00 57.5 14.2 69.55 n/a
2017 09 12 3:00 273.1 0.0 0.00 58.2 14.5 68.24 n/a
2017 09 12 4:00 273.7 0.0 0.00 57.5 14.2 70.54 n/a
2017 09 12 5:00 273.8 0.0 0.00 57.2 14.0 72.25 n/a
2017 09 12 6:00 273.8 0.0 0.00 56.9 13.8 73.92 n/a
2017 09 12 7:00 273.8 0.0 0.00 56.7 13.7 75.71 n/a
2017 09 12 8:00 273.3 0.0 0.00 58.5 14.7 73.56 n/a
2017 09 12 9:00 273.0 0.0 0.00 60.4 15.8 71.24 n/a
2017 09 12 10:00 272.1 0.0 0.00 64.4 18.0 60.99 n/a
2017 09 12 11:00 271.3 0.0 0.00 67.9 19.9 53.35 n/a
2017 09 12 12:00 270.7 0.0 0.00 71.0 21.7 48.49 n/a
2017 09 12 13:00 270.2 0.0 0.00 72.8 22.7 43.3 n/a
2017 09 12 14:00 269.6 0.0 0.00 74.1 23.4 37.99 n/a
2017 09 12 15:00 269.5 0.0 0.00 75.1 23.9 35.34 n/a
2017 09 12 16:00 269.5 0.0 0.00 74.0 23.3 37.46 n/a
2017 09 12 17:00 269.9 0.0 0.00 73.0 22.8 42.99 n/a
2017 09 12 18:00 270.6 0.0 0.00 71.6 22.0 48.81 n/a
2017 09 12 19:00 271.5 0.0 0.00 68.6 20.4 55.23 n/a
2017 09 12 20:00 272.1 0.0 0.00 66.0 18.9 59.81 n/a
2017 09 12 21:00 272.8 0.0 0.00 63.3 17.4 63.96 n/a
2017 09 12 22:00 273.1 0.0 0.00 62.6 17.0 64.43 n/a
2017 09 12 23:00 275.1 0.0 0.00 59.4 15.2 74.84 n/a
2017 09 12 24:00 Wet 284.1 0.0 0.00 55.9 13.3 85.6 n/a
2017 09 13 1:00 Wet 289.9 0.0 0.00 54.9 12.7 85.2 n/a
2017 09 13 2:00 Wet 297.8 0.0 0.00 54.3 12.4 84.7 n/a
2017 09 13 3:00 Wet 292.4 0.0 0.00 53.9 12.2 84.7 n/a
2017 09 13 4:00 Wet 311.0 0.0 0.00 52.4 11.3 89 n/a
2017 09 13 5:00 Wet 339.9 0.0 0.00 52.0 11.1 89.4 n/a
2017 09 13 6:00 Wet 335.9 0.0 0.00 52.1 11.1 87.8 n/a
2017 09 13 7:00 Wet 347.7 0.0 0.00 51.7 11.0 90.2 n/a
2017 09 13 8:00 Wet 303.8 0.0 0.00 59.3 15.2 76.14 n/a
2017 09 13 9:00 272.5 0.0 0.00 66.0 18.9 65.18 n/a
2017 09 13 10:00 271.3 0.0 0.00 72.1 22.3 53.7 n/a
2017 09 13 11:00 270.9 0.0 0.00 75.3 24.0 50.14 n/a
2017 09 13 12:00 270.7 0.0 0.00 77.6 25.4 48.35 n/a
2017 09 13 13:00 270.3 0.0 0.00 79.3 26.3 46.02 n/a
2017 09 13 14:00 270.0 0.0 0.00 80.5 26.9 42.85 n/a
2017 09 13 15:00 269.6 0.0 0.00 82.0 27.8 39.95 n/a
2017 09 13 16:00 269.5 0.0 0.00 82.3 28.0 38.33 n/a
2017 09 13 17:00 269.5 0.0 0.00 82.4 28.0 38.07 n/a
2017 09 13 18:00 269.5 0.0 0.00 81.0 27.2 42.14 n/a
2017 09 13 19:00 271.6 0.0 0.00 74.4 23.6 57.02 n/a
2017 09 13 20:00 272.9 0.0 0.00 71.2 21.8 63.65 n/a
2017 09 13 21:00 273.4 0.0 0.00 68.4 20.2 65.69 n/a
2017 09 13 22:00 274.5 0.0 0.00 65.8 18.8 69.15 n/a
2017 09 13 23:00 275.4 0.0 0.00 63.6 17.6 72.33 n/a
2017 09 13 24:00 275.8 0.0 0.00 61.9 16.6 75.59 n/a
2017 09 14 1:00 274.9 0.0 0.00 62.1 16.7 72.79 n/a
2017 09 14 2:00 274.9 0.0 0.00 61.3 16.3 73.6 n/a
2017 09 14 3:00 275.1 0.0 0.00 60.3 15.7 75.25 n/a
2017 09 14 4:00 275.1 0.0 0.00 59.7 15.4 76.6 n/a
2017 09 14 5:00 275.3 0.0 0.00 59.1 15.0 79.05 n/a
2017 09 14 6:00 275.6 0.0 0.00 58.7 14.9 80.4 n/a
2017 09 14 7:00 275.3 0.0 0.00 58.4 14.6 81.8 n/a
2017 09 14 8:00 273.6 0.0 0.00 62.2 16.8 75.31 n/a
2017 09 14 9:00 272.1 0.0 0.00 67.7 19.8 64.2 n/a
2017 09 14 10:00 271.3 0.0 0.00 72.5 22.5 54.93 n/a
2017 09 14 11:00 270.3 0.0 0.00 76.6 24.8 46.47 n/a
2017 09 14 12:00 269.6 0.0 0.00 80.0 26.6 41.06 n/a
2017 09 14 13:00 269.3 0.0 0.00 82.2 27.9 38.26 n/a
2017 09 14 14:00 268.9 0.0 0.00 83.8 28.8 34.04 n/a
2017 09 14 15:00 268.8 0.0 0.00 84.1 28.9 32.92 n/a
2017 09 14 16:00 268.8 0.0 0.00 84.4 29.1 33.11 n/a
2017 09 14 17:00 268.8 0.0 0.00 83.2 28.5 34.61 n/a
2017 09 14 18:00 269.2 0.0 0.00 80.9 27.2 39.93 n/a
2017 09 14 19:00 270.6 0.0 0.00 75.9 24.4 48.45 n/a
2017 09 14 20:00 271.5 0.0 0.00 73.1 22.8 54.28 n/a
2017 09 14 21:00 271.7 0.0 0.00 71.4 21.9 57.02 n/a
2017 09 14 22:00 272.3 0.0 0.00 69.9 21.1 60.69 n/a
2017 09 14 23:00 272.4 0.0 0.00 68.9 20.5 61.09 n/a
2017 09 14 24:00 272.5 0.0 0.00 68.0 20.0 62.92 n/a
2017 09 15 1:00 273.1 0.0 0.00 66.1 18.9 67.31 n/a
2017 09 15 2:00 273.7 0.0 0.00 64.5 18.1 70.65 n/a
2017 09 15 3:00 273.7 0.0 0.00 64.5 18.1 71.26 n/a
2017 09 15 4:00 273.7 0.0 0.00 64.5 18.0 73.72 n/a
2017 09 15 5:00 274.2 0.0 0.00 63.8 17.7 76.94 n/a
2017 09 15 6:00 274.4 0.0 0.00 64.3 18.0 78.11 n/a
2017 09 15 7:00 274.1 0.0 0.00 65.2 18.4 77.52 n/a
2017 09 15 8:00 272.9 0.0 0.00 68.0 20.0 73.73 n/a
2017 09 15 9:00 272.2 0.0 0.00 72.4 22.4 68.66 n/a
2017 09 15 10:00 271.3 0.0 0.00 77.3 25.2 61.84 n/a
2017 09 15 11:00 270.9 0.0 0.00 80.6 27.0 58.94 n/a
2017 09 15 12:00 270.9 0.0 0.00 82.8 28.2 57 n/a
2017 09 15 13:00 270.8 0.0 0.00 84.1 28.9 55.63 n/a
2017 09 15 14:00 270.2 0.0 0.00 86.3 30.2 52.17 n/a
2017 09 15 15:00 270.2 0.0 0.00 85.9 29.9 51.33 n/a
2017 09 15 16:00 270.2 0.0 0.00 87.1 30.6 47.98 n/a
2017 09 15 17:00 270.6 0.0 0.00 84.6 29.2 51.12 n/a
2017 09 15 18:00 270.8 0.0 0.00 83.1 28.4 53.56 n/a
2017 09 15 19:00 271.5 0.0 0.00 80.2 26.8 56.73 n/a
2017 09 15 20:00 271.6 0.0 0.00 78.6 25.9 58.53 n/a
2017 09 15 21:00 271.7 0.0 0.00 77.1 25.1 59.69 n/a
2017 09 15 22:00 272.3 0.0 0.00 75.4 24.1 61.8 n/a
2017 09 15 23:00 272.3 0.0 0.00 73.5 23.1 65.5 n/a
2017 09 15 24:00 273.0 0.0 0.00 71.9 22.2 69.73 n/a
2017 09 16 1:00 273.2 0.0 0.00 71.3 21.8 71.62 n/a
2017 09 16 2:00 273.7 0.0 0.00 70.1 21.2 74.71 n/a
2017 09 16 3:00 273.7 0.0 0.00 69.2 20.7 77.05 n/a
2017 09 16 4:00 274.3 0.0 0.00 68.5 20.3 79.17 n/a
2017 09 16 5:00 274.7 0.0 0.00 67.6 19.8 81.6 n/a
2017 09 16 6:00 275.0 0.0 0.00 67.2 19.5 81.9 n/a
2017 09 16 7:00 274.4 0.0 0.00 67.5 19.7 80.6 n/a
2017 09 16 8:00 273.2 0.0 0.00 69.9 21.1 75.45 n/a
2017 09 16 9:00 272.4 0.0 0.00 72.8 22.7 70.52 n/a
2017 09 16 10:00 271.7 0.0 0.00 76.8 24.9 64.6 n/a
2017 09 16 11:00 271.1 0.0 0.00 79.9 26.6 60.85 n/a
2017 09 16 12:00 270.9 0.0 0.00 82.0 27.8 57.95 n/a
2017 09 16 13:00 270.6 0.0 0.00 84.1 28.9 54.54 n/a
2017 09 16 14:00 270.7 0.0 0.00 84.1 29.0 54.65 n/a
2017 09 16 15:00 270.7 0.0 0.00 84.7 29.3 54 n/a
2017 09 16 16:00 270.6 0.0 0.00 84.5 29.2 54.47 n/a
2017 09 16 17:00 Wet 284.4 0.1 1.52 77.0 25.0 68.16 n/a
2017 09 16 18:00 Wet 398.2 0.1 1.52 67.1 19.5 87.8 n/a
2017 09 16 19:00 Wet 359.2 0.0 0.51 68.5 20.3 88.9 n/a
2017 09 16 20:00 Wet 295.8 0.0 0.00 68.8 20.4 87.6 n/a
2017 09 16 21:00 275.1 0.0 0.00 68.8 20.4 82.1 n/a
2017 09 16 22:00 274.9 0.0 0.00 68.6 20.3 79.17 n/a
2017 09 16 23:00 275.1 0.0 0.00 68.1 20.1 80.7 n/a
2017 09 16 24:00 276.2 0.0 0.00 66.7 19.3 87.2 n/a
2017 09 17 1:00 275.0 0.0 0.00 68.5 20.3 79.39 n/a
2017 09 17 2:00 Wet 287.6 0.0 0.00 68.3 20.2 77.71 n/a
2017 09 17 3:00 Wet 319.7 0.0 0.00 66.2 19.0 89.6 n/a
2017 09 17 4:00 Wet 286.1 0.0 0.00 66.2 19.0 90.6 n/a
2017 09 17 5:00 Wet 428.0 0.7 18.29 64.3 18.0 91.4 n/a
2017 09 17 6:00 Wet 465.3 0.2 4.06 62.9 17.2 98.9 n/a
2017 09 17 7:00 Wet 471.9 0.2 4.32 63.1 17.3 99.2 n/a
2017 09 17 8:00 Wet 442.7 0.2 4.83 63.4 17.4 99.3 n/a
2017 09 17 9:00 Wet 367.2 0.1 1.27 63.9 17.7 99.3 n/a
2017 09 17 10:00 Wet 324.5 0.0 0.00 64.7 18.1 97.8 n/a
2017 09 17 11:00 281.0 0.0 0.00 65.0 18.3 95.2 n/a
2017 09 17 12:00 274.7 0.0 0.00 66.8 19.3 88.5 n/a
2017 09 17 13:00 273.7 0.0 0.00 68.9 20.5 79.85 n/a
2017 09 17 14:00 273.2 0.0 0.00 71.7 22.1 71.44 n/a
2017 09 17 15:00 272.9 0.0 0.00 71.9 22.1 70.64 n/a
2017 09 17 16:00 272.8 0.0 0.00 72.5 22.5 68.98 n/a
2017 09 17 17:00 272.9 0.0 0.00 73.0 22.8 70.14 n/a
2017 09 17 18:00 273.9 0.0 0.00 71.0 21.6 76.33 n/a
2017 09 17 19:00 275.3 0.0 0.00 69.0 20.6 82.4 n/a
2017 09 17 20:00 277.2 0.0 0.00 67.5 19.7 87 n/a
2017 09 17 21:00 Wet 286.9 0.0 0.00 65.9 18.8 90 n/a
2017 09 17 22:00 Wet 333.2 0.0 0.00 64.5 18.0 93.7 n/a
2017 09 17 23:00 Wet 373.0 0.0 0.00 63.5 17.5 95.7 n/a
2017 09 17 24:00 Wet 355.1 0.0 0.00 62.9 17.2 96.2 n/a
2017 09 18 1:00 Wet 354.0 0.0 0.00 62.5 17.0 96.5 n/a
2017 09 18 2:00 Wet 352.4 0.0 0.00 62.4 16.9 96.7 n/a
2017 09 18 3:00 Wet 353.7 0.0 0.00 61.9 16.6 97 n/a
2017 09 18 4:00 Wet 354.5 0.0 0.00 61.7 16.5 97.5 n/a
2017 09 18 5:00 Wet 354.4 0.0 0.00 61.1 16.2 97.7 n/a
2017 09 18 6:00 Wet 354.1 0.0 0.00 61.0 16.1 98 n/a
2017 09 18 7:00 Wet 338.4 0.0 0.00 61.5 16.4 98.3 n/a
2017 09 18 8:00 Wet 317.6 0.0 0.25 63.1 17.3 98 n/a
2017 09 18 9:00 Wet 432.2 0.1 2.03 64.2 17.9 97.1 n/a
2017 09 18 10:00 Wet 288.2 0.0 0.00 66.6 19.2 92.9 n/a
2017 09 18 11:00 276.2 0.0 0.00 67.8 19.9 89.7 n/a
2017 09 18 12:00 275.2 0.0 0.00 68.8 20.5 88 n/a
2017 09 18 13:00 Wet 389.1 0.0 1.02 68.7 20.4 91.2 n/a
2017 09 18 14:00 Wet 411.0 0.0 0.76 68.9 20.5 91.4 n/a
2017 09 18 15:00 Wet 293.4 0.0 0.00 69.2 20.7 92.2 n/a
2017 09 18 16:00 276.3 0.0 0.00 72.7 22.6 84.9 n/a
2017 09 18 17:00 274.3 0.0 0.00 75.5 24.2 74.79 n/a
2017 09 18 18:00 274.5 0.0 0.00 75.4 24.1 75.68 n/a
2017 09 18 19:00 Wet 293.6 0.0 0.00 71.8 22.1 87.5 n/a
2017 09 18 20:00 Wet 364.5 0.0 0.00 69.3 20.7 94.2 n/a
2017 09 18 21:00 Wet 372.0 0.0 0.00 68.1 20.1 95.3 n/a
2017 09 18 22:00 Wet 353.4 0.0 0.00 67.7 19.8 96 n/a
2017 09 18 23:00 Wet 348.4 0.0 0.00 67.6 19.8 93.9 n/a
2017 09 18 24:00 Wet 347.1 0.0 0.00 67.1 19.5 93 n/a
2017 09 19 1:00 Wet 346.4 0.0 0.00 66.5 19.1 93.7 n/a
2017 09 19 2:00 Wet 317.9 0.0 0.00 66.7 19.3 91.4 n/a
2017 09 19 3:00 Wet 289.8 0.0 0.00 67.1 19.5 89.6 n/a
2017 09 19 4:00 Wet 284.9 0.0 0.00 66.7 19.3 90.2 n/a
2017 09 19 5:00 Wet 284.8 0.0 0.00 66.1 18.9 91.6 n/a
2017 09 19 6:00 Wet 287.0 0.0 0.00 65.5 18.6 93.2 n/a
2017 09 19 7:00 282.5 0.0 0.00 65.6 18.6 93.6 n/a
2017 09 19 8:00 277.9 0.0 0.00 66.4 19.1 92.2 n/a
2017 09 19 9:00 274.5 0.0 0.00 71.3 21.8 81.3 n/a
2017 09 19 10:00 273.5 0.0 0.00 75.1 23.9 73.45 n/a
2017 09 19 11:00 273.0 0.0 0.00 78.7 25.9 70.04 n/a
2017 09 19 12:00 272.7 0.0 0.00 82.0 27.8 64.13 n/a
2017 09 19 13:00 272.1 0.0 0.00 84.9 29.4 57.39 n/a
2017 09 19 14:00 271.6 0.0 0.00 85.7 29.9 56.46 n/a
2017 09 19 15:00 271.6 0.0 0.00 86.1 30.0 54.2 n/a
2017 09 19 16:00 271.6 0.0 0.00 85.9 29.9 55.06 n/a
2017 09 19 17:00 271.6 0.0 0.00 85.2 29.6 56.36 n/a
2017 09 19 18:00 272.0 0.0 0.00 83.4 28.6 59.09 n/a
2017 09 19 19:00 272.7 0.0 0.00 80.1 26.7 64.32 n/a
2017 09 19 20:00 272.9 0.0 0.00 78.2 25.7 67.35 n/a
2017 09 19 21:00 272.9 0.0 0.00 77.4 25.2 66.71 n/a
2017 09 19 22:00 272.9 0.0 0.00 76.6 24.8 68.01 n/a
2017 09 19 23:00 273.2 0.0 0.00 76.1 24.5 70.08 n/a
2017 09 19 24:00 273.6 0.0 0.00 75.0 23.9 73.59 n/a
2017 09 20 1:00 274.1 0.0 0.00 74.2 23.4 77.15 n/a
2017 09 20 2:00 274.4 0.0 0.00 73.4 23.0 80.1 n/a
2017 09 20 3:00 274.7 0.0 0.00 73.2 22.9 81.7 n/a
2017 09 20 4:00 275.1 0.0 0.00 72.4 22.4 84.7 n/a
2017 09 20 5:00 276.0 0.0 0.00 71.7 22.1 87.3 n/a
2017 09 20 6:00 277.3 0.0 0.00 70.4 21.4 90.7 n/a
2017 09 20 7:00 276.9 0.0 0.00 70.5 21.4 91.1 n/a
2017 09 20 8:00 274.9 0.0 0.00 73.2 22.9 86.3 n/a
2017 09 20 9:00 273.5 0.0 0.00 77.5 25.3 78.29 n/a
2017 09 20 10:00 272.6 0.0 0.00 81.0 27.2 71.41 n/a
2017 09 20 11:00 272.2 0.0 0.00 83.6 28.7 66.62 n/a
2017 09 20 12:00 271.9 0.0 0.00 85.6 29.8 64.44 n/a
2017 09 20 13:00 271.7 0.0 0.00 86.8 30.5 62.2 n/a
2017 09 20 14:00 271.5 0.0 0.00 88.3 31.3 59.02 n/a
2017 09 20 15:00 271.4 0.0 0.00 89.0 31.6 56.71 n/a
2017 09 20 16:00 271.2 0.0 0.00 89.4 31.9 55.75 n/a
2017 09 20 17:00 271.5 0.0 0.00 88.8 31.6 55.75 n/a
2017 09 20 18:00 271.8 0.0 0.00 87.2 30.7 60.02 n/a
2017 09 20 19:00 273.0 0.0 0.00 83.4 28.5 68.26 n/a
2017 09 20 20:00 273.6 0.0 0.00 81.2 27.3 73.02 n/a
2017 09 20 21:00 273.7 0.0 0.00 79.9 26.6 74.82 n/a
2017 09 20 22:00 273.7 0.0 0.00 78.8 26.0 75.44 n/a
2017 09 20 23:00 273.6 0.0 0.00 78.3 25.7 75.4 n/a
2017 09 20 24:00 273.6 0.0 0.00 77.8 25.4 75.19 n/a
2017 09 21 1:00 273.6 0.0 0.00 77.2 25.1 75.6 n/a
2017 09 21 2:00 273.7 0.0 0.00 76.9 25.0 75.84 n/a
2017 09 21 3:00 274.1 0.0 0.00 76.5 24.7 77.33 n/a
2017 09 21 4:00 274.3 0.0 0.00 75.5 24.2 79.56 n/a
2017 09 21 5:00 275.1 0.0 0.00 73.8 23.2 83.9 n/a
2017 09 21 6:00 275.7 0.0 0.00 72.8 22.7 85.9 n/a
2017 09 21 7:00 275.5 0.0 0.00 72.7 22.6 85.9 n/a
2017 09 21 8:00 274.6 0.0 0.00 74.4 23.6 82.3 n/a
2017 09 21 9:00 273.3 0.0 0.00 77.5 25.3 76.98 n/a
2017 09 21 10:00 272.5 0.0 0.00 81.3 27.4 70.47 n/a
2017 09 21 11:00 272.2 0.0 0.00 84.4 29.1 65.13 n/a
2017 09 21 12:00 271.8 0.0 0.00 86.0 30.0 63.33 n/a
2017 09 21 13:00 271.6 0.0 0.00 87.4 30.8 60.28 n/a
2017 09 21 14:00 271.5 0.0 0.00 88.7 31.5 56.66 n/a
2017 09 21 15:00 271.1 0.0 0.00 89.2 31.8 54.48 n/a
2017 09 21 16:00 271.5 0.0 0.00 88.7 31.5 55.63 n/a
2017 09 21 17:00 271.6 0.0 0.00 88.0 31.1 56.32 n/a
2017 09 21 18:00 271.9 0.0 0.00 85.7 29.9 61.09 n/a
2017 09 21 19:00 272.8 0.0 0.00 82.2 27.9 67.92 n/a
2017 09 21 20:00 273.6 0.0 0.00 79.9 26.6 71.26 n/a
2017 09 21 21:00 273.6 0.0 0.00 78.7 25.9 72.09 n/a
2017 09 21 22:00 273.6 0.0 0.00 77.1 25.1 74.75 n/a
2017 09 21 23:00 274.0 0.0 0.00 76.3 24.6 75.73 n/a
2017 09 21 24:00 274.3 0.0 0.00 75.3 24.1 77.7 n/a
2017 09 22 1:00 275.0 0.0 0.00 73.7 23.1 81.1 n/a
2017 09 22 2:00 275.2 0.0 0.00 72.6 22.6 82.8 n/a
2017 09 22 3:00 275.7 0.0 0.00 71.7 22.1 85.1 n/a
2017 09 22 4:00 275.8 0.0 0.00 71.4 21.9 85.8 n/a
2017 09 22 5:00 275.8 0.0 0.00 71.4 21.9 85.5 n/a
2017 09 22 6:00 276.1 0.0 0.00 70.9 21.6 86.3 n/a
2017 09 22 7:00 275.8 0.0 0.00 71.3 21.8 85.8 n/a
2017 09 22 8:00 274.2 0.0 0.00 73.8 23.2 80.4 n/a
2017 09 22 9:00 273.2 0.0 0.00 77.0 25.0 74.01 n/a
2017 09 22 10:00 272.4 0.0 0.00 80.3 26.9 66.72 n/a
2017 09 22 11:00 271.7 0.0 0.00 82.8 28.2 60.2 n/a
2017 09 22 12:00 271.4 0.0 0.00 84.6 29.2 56.98 n/a
2017 09 22 13:00 270.9 0.0 0.00 85.9 30.0 54.4 n/a
2017 09 22 14:00 270.9 0.0 0.00 86.8 30.5 51.54 n/a
2017 09 22 15:00 270.8 0.0 0.00 87.4 30.8 50.11 n/a
2017 09 22 16:00 270.8 0.0 0.00 87.3 30.7 50.01 n/a
2017 09 22 17:00 270.9 0.0 0.00 86.5 30.3 51.81 n/a
2017 09 22 18:00 271.0 0.0 0.00 84.6 29.2 55.69 n/a
2017 09 22 19:00 272.6 0.0 0.00 80.5 26.9 64.83 n/a
2017 09 22 20:00 273.4 0.0 0.00 77.8 25.4 71.17 n/a
2017 09 22 21:00 273.9 0.0 0.00 76.2 24.5 74.69 n/a
2017 09 22 22:00 274.3 0.0 0.00 75.1 24.0 75.91 n/a
2017 09 22 23:00 275.0 0.0 0.00 74.1 23.4 76.59 n/a
2017 09 22 24:00 275.2 0.0 0.00 73.1 22.9 77.55 n/a
2017 09 23 1:00 275.7 0.0 0.00 71.7 22.1 81 n/a
2017 09 23 2:00 275.2 0.0 0.00 71.7 22.1 79.26 n/a
2017 09 23 3:00 275.4 0.0 0.00 71.3 21.9 79.32 n/a
2017 09 23 4:00 276.1 0.0 0.00 70.3 21.3 82 n/a
2017 09 23 5:00 276.0 0.0 0.00 69.8 21.0 82.7 n/a
2017 09 23 6:00 275.9 0.0 0.00 69.6 20.9 82.8 n/a
2017 09 23 7:00 275.8 0.0 0.00 69.4 20.8 83.4 n/a
2017 09 23 8:00 273.6 0.0 0.00 72.4 22.4 78.01 n/a
2017 09 23 9:00 272.7 0.0 0.00 75.8 24.3 72.84 n/a
2017 09 23 10:00 271.8 0.0 0.00 79.8 26.6 66.28 n/a
2017 09 23 11:00 271.1 0.0 0.00 83.6 28.6 60.16 n/a
2017 09 23 12:00 270.9 0.0 0.00 85.3 29.6 57.16 n/a
2017 09 23 13:00 270.7 0.0 0.00 86.9 30.5 51.44 n/a
2017 09 23 14:00 270.4 0.0 0.00 87.7 30.9 49.51 n/a
2017 09 23 15:00 270.2 0.0 0.00 88.2 31.2 47.74 n/a
2017 09 23 16:00 270.2 0.0 0.00 87.9 31.0 48.06 n/a
2017 09 23 17:00 270.4 0.0 0.00 87.5 30.8 48.62 n/a
2017 09 23 18:00 270.6 0.0 0.00 85.4 29.7 53.48 n/a
2017 09 23 19:00 272.6 0.0 0.00 79.9 26.6 65.67 n/a
2017 09 23 20:00 272.9 0.0 0.00 77.1 25.1 68.68 n/a
2017 09 23 21:00 273.5 0.0 0.00 75.5 24.1 70.77 n/a
2017 09 23 22:00 273.9 0.0 0.00 74.1 23.4 73.84 n/a
2017 09 23 23:00 274.6 0.0 0.00 72.6 22.6 77.06 n/a
2017 09 23 24:00 274.7 0.0 0.00 72.2 22.3 76.53 n/a
2017 09 24 1:00 274.3 0.0 0.00 73.2 22.9 71.84 n/a
2017 09 24 2:00 274.2 0.0 0.00 72.8 22.7 72.53 n/a
2017 09 24 3:00 274.4 0.0 0.00 71.1 21.7 76.1 n/a
2017 09 24 4:00 274.5 0.0 0.00 70.5 21.4 76.53 n/a
2017 09 24 5:00 275.1 0.0 0.00 69.4 20.8 79.08 n/a
2017 09 24 6:00 275.2 0.0 0.00 68.7 20.4 80.6 n/a
2017 09 24 7:00 274.8 0.0 0.00 69.3 20.7 79.39 n/a
2017 09 24 8:00 273.3 0.0 0.00 72.5 22.5 73.87 n/a
2017 09 24 9:00 272.5 0.0 0.00 75.7 24.3 69.49 n/a
2017 09 24 10:00 271.8 0.0 0.00 79.4 26.3 64.79 n/a
2017 09 24 11:00 271.4 0.0 0.00 82.7 28.1 59.51 n/a
2017 09 24 12:00 271.0 0.0 0.00 84.0 28.9 55.16 n/a
2017 09 24 13:00 270.4 0.0 0.00 86.1 30.1 50.34 n/a
2017 09 24 14:00 270.3 0.0 0.00 86.5 30.3 47.88 n/a
2017 09 24 15:00 270.2 0.0 0.00 86.6 30.3 46.39 n/a
2017 09 24 16:00 270.1 0.0 0.00 87.7 30.9 45.49 n/a
2017 09 24 17:00 270.2 0.0 0.00 86.6 30.4 47.67 n/a
2017 09 24 18:00 271.2 0.0 0.00 83.0 28.4 57.08 n/a
2017 09 24 19:00 272.5 0.0 0.00 78.8 26.0 65.64 n/a
2017 09 24 20:00 272.9 0.0 0.00 76.7 24.9 68.55 n/a
2017 09 24 21:00 273.0 0.0 0.00 75.3 24.0 66.94 n/a
2017 09 24 22:00 273.4 0.0 0.00 72.5 22.5 70.95 n/a
2017 09 24 23:00 274.1 0.0 0.00 70.9 21.6 74.53 n/a
2017 09 24 24:00 274.4 0.0 0.00 69.9 21.1 76.32 n/a
2017 09 25 1:00 274.4 0.0 0.00 69.3 20.7 77.69 n/a
2017 09 25 2:00 274.4 0.0 0.00 68.6 20.3 79.49 n/a
2017 09 25 3:00 274.7 0.0 0.00 68.1 20.0 80.3 n/a
2017 09 25 4:00 276.9 0.0 0.00 66.5 19.1 83.8 n/a
2017 09 25 5:00 276.7 0.0 0.00 66.3 19.0 84.8 n/a
2017 09 25 6:00 276.3 0.0 0.00 66.3 19.1 84.5 n/a
2017 09 25 7:00 275.7 0.0 0.00 66.8 19.3 83.5 n/a
2017 09 25 8:00 273.9 0.0 0.00 70.1 21.2 77.11 n/a
2017 09 25 9:00 272.8 0.0 0.00 73.7 23.2 70.81 n/a
2017 09 25 10:00 271.9 0.0 0.00 77.6 25.3 64.45 n/a
2017 09 25 11:00 271.4 0.0 0.00 81.0 27.2 59.3 n/a
2017 09 25 12:00 270.9 0.0 0.00 83.0 28.4 54.89 n/a
2017 09 25 13:00 270.8 0.0 0.00 84.2 29.0 52.27 n/a
2017 09 25 14:00 270.3 0.0 0.00 84.8 29.3 49.44 n/a
2017 09 25 15:00 270.3 0.0 0.00 84.9 29.4 47.78 n/a
2017 09 25 16:00 270.2 0.0 0.00 85.2 29.6 44.67 n/a
2017 09 25 17:00 270.2 0.0 0.00 84.3 29.1 46.34 n/a
2017 09 25 18:00 271.1 0.0 0.00 81.1 27.3 53.61 n/a
2017 09 25 19:00 272.1 0.0 0.00 78.0 25.6 60.13 n/a
2017 09 25 20:00 272.9 0.0 0.00 75.3 24.1 66.94 n/a
2017 09 25 21:00 273.1 0.0 0.00 75.4 24.1 66.13 n/a
2017 09 25 22:00 273.3 0.0 0.00 73.8 23.2 72.29 n/a
2017 09 25 23:00 274.4 0.0 0.00 70.0 21.1 83.5 n/a
2017 09 25 24:00 274.4 0.0 0.00 68.8 20.4 80.2 n/a
2017 09 26 1:00 274.6 0.0 0.00 68.0 20.0 82.8 n/a
2017 09 26 2:00 275.1 0.0 0.00 67.4 19.6 84.7 n/a
2017 09 26 3:00 275.4 0.0 0.00 67.0 19.4 86 n/a
2017 09 26 4:00 276.7 0.0 0.00 65.9 18.8 89.3 n/a
2017 09 26 5:00 277.0 0.0 0.00 65.5 18.6 90.3 n/a
2017 09 26 6:00 276.3 0.0 0.00 65.9 18.8 88.4 n/a
2017 09 26 7:00 Wet 323.9 0.0 0.00 65.3 18.5 91.7 n/a
2017 09 26 8:00 Wet 305.5 0.0 0.00 65.7 18.7 92 n/a
2017 09 26 9:00 279.3 0.0 0.00 67.1 19.5 87.2 n/a
2017 09 26 10:00 274.5 0.0 0.00 68.1 20.1 84.2 n/a
2017 09 26 11:00 273.5 0.0 0.00 70.4 21.3 78.76 n/a
2017 09 26 12:00 272.9 0.0 0.00 72.6 22.6 71.95 n/a
2017 09 26 13:00 272.7 0.0 0.00 73.1 22.9 70.19 n/a
2017 09 26 14:00 272.8 0.0 0.00 73.0 22.8 70.19 n/a
2017 09 26 15:00 273.6 0.0 0.00 70.3 21.3 78.23 n/a
2017 09 26 16:00 273.7 0.0 0.00 68.8 20.4 79.39 n/a
2017 09 26 17:00 274.5 0.0 0.00 67.5 19.7 80.5 n/a
2017 09 26 18:00 274.4 0.0 0.00 66.8 19.4 79.73 n/a
2017 09 26 19:00 274.4 0.0 0.00 65.7 18.7 81.4 n/a
2017 09 26 20:00 274.5 0.0 0.00 64.9 18.3 81.7 n/a
2017 09 26 21:00 275.0 0.0 0.00 64.1 17.9 82.9 n/a
2017 09 26 22:00 275.1 0.0 0.00 63.5 17.5 85.1 n/a
2017 09 26 23:00 275.2 0.0 0.00 62.8 17.1 84.7 n/a
2017 09 26 24:00 275.1 0.0 0.00 62.0 16.6 84.8 n/a
2017 09 27 1:00 275.1 0.0 0.00 61.1 16.2 84.2 n/a
2017 09 27 2:00 275.1 0.0 0.00 60.5 15.9 84.3 n/a
2017 09 27 3:00 275.1 0.0 0.00 60.0 15.5 84.7 n/a
2017 09 27 4:00 275.6 0.0 0.00 59.6 15.3 85.4 n/a
2017 09 27 5:00 275.3 0.0 0.00 59.4 15.2 84.8 n/a
2017 09 27 6:00 275.1 0.0 0.00 59.2 15.1 84.7 n/a
2017 09 27 7:00 275.1 0.0 0.00 59.0 15.0 85.4 n/a
2017 09 27 8:00 275.2 0.0 0.00 59.3 15.2 84.2 n/a
2017 09 27 9:00 278.1 0.0 0.00 60.1 15.6 81.6 n/a
2017 09 27 10:00 274.3 0.0 0.00 61.3 16.3 76.85 n/a
2017 09 27 11:00 273.7 0.0 0.00 62.2 16.8 72.79 n/a
2017 09 27 12:00 273.8 0.0 0.00 63.0 17.2 71.45 n/a
2017 09 27 13:00 274.3 0.0 0.00 63.6 17.6 70.95 n/a
2017 09 27 14:00 Wet 284.3 0.0 0.00 62.7 17.0 74.42 n/a
2017 09 27 15:00 Wet 291.1 0.0 0.00 62.9 17.2 74.03 n/a
2017 09 27 16:00 273.0 0.0 0.00 64.3 17.9 65.82 n/a
2017 09 27 17:00 273.0 0.0 0.00 63.5 17.5 62.49 n/a
2017 09 27 18:00 273.0 0.0 0.00 62.4 16.9 59.74 n/a
2017 09 27 19:00 273.5 0.0 0.00 59.9 15.5 65.73 n/a
2017 09 27 20:00 274.3 0.0 0.00 58.0 14.4 73.57 n/a
2017 09 27 21:00 274.5 0.0 0.00 57.6 14.2 76.12 n/a
2017 09 27 22:00 275.1 0.0 0.00 56.5 13.6 79.42 n/a
2017 09 27 23:00 274.7 0.0 0.00 56.6 13.7 77.48 n/a
2017 09 27 24:00 274.5 0.0 0.00 56.4 13.6 77.04 n/a
2017 09 28 1:00 275.1 0.0 0.00 55.5 13.1 78.47 n/a
2017 09 28 2:00 276.3 0.0 0.00 54.3 12.4 82.7 n/a
2017 09 28 3:00 278.7 0.0 0.00 53.2 11.8 87 n/a
2017 09 28 4:00 277.4 0.0 0.00 53.3 11.8 85 n/a
2017 09 28 5:00 281.4 0.0 0.00 52.4 11.4 86.3 n/a
2017 09 28 6:00 282.0 0.0 0.00 52.0 11.1 87.4 n/a
2017 09 28 7:00 277.6 0.0 0.00 52.3 11.3 85.5 n/a
2017 09 28 8:00 274.4 0.0 0.00 56.6 13.6 75.87 n/a
2017 09 28 9:00 273.1 0.0 0.00 60.9 16.1 64.11 n/a
2017 09 28 10:00 272.0 0.0 0.00 65.0 18.3 51.84 n/a
2017 09 28 11:00 271.4 0.0 0.00 68.0 20.0 45.72 n/a
2017 09 28 12:00 271.0 0.0 0.00 70.0 21.1 44.91 n/a
2017 09 28 13:00 270.9 0.0 0.00 71.6 22.0 43.94 n/a
2017 09 28 14:00 270.8 0.0 0.00 72.7 22.6 42.22 n/a
2017 09 28 15:00 270.4 0.0 0.00 73.5 23.1 40.05 n/a
2017 09 28 16:00 270.3 0.0 0.00 73.6 23.1 39.79 n/a
2017 09 28 17:00 270.2 0.0 0.00 73.7 23.2 39.87 n/a
2017 09 28 18:00 270.6 0.0 0.00 71.8 22.1 44.8 n/a
2017 09 28 19:00 272.5 0.0 0.00 65.6 18.7 58.54 n/a
2017 09 28 20:00 274.0 0.0 0.00 61.9 16.6 67.54 n/a
2017 09 28 21:00 276.2 0.0 0.00 58.6 14.8 79.17 n/a
2017 09 28 22:00 280.1 0.0 0.00 57.3 14.1 83.5 n/a
2017 09 28 23:00 Wet 290.0 0.0 0.00 56.1 13.4 85.7 n/a
2017 09 28 24:00 Wet 307.7 0.0 0.00 55.7 13.2 86.2 n/a
2017 09 29 1:00 Wet 329.2 0.0 0.00 54.4 12.4 88.2 n/a
2017 09 29 2:00 Wet 365.5 0.0 0.00 52.8 11.6 92.4 n/a
2017 09 29 3:00 Wet 367.4 0.0 0.00 51.4 10.8 94.5 n/a
2017 09 29 4:00 Wet 349.4 0.0 0.00 51.1 10.6 95 n/a
2017 09 29 5:00 Wet 358.4 0.0 0.00 50.6 10.3 95.7 n/a
2017 09 29 6:00 Wet 359.7 0.0 0.00 50.1 10.1 96.2 n/a
2017 09 29 7:00 Wet 351.4 0.0 0.00 51.0 10.6 95.7 n/a
2017 09 29 8:00 Wet 295.9 0.0 0.00 59.4 15.2 82 n/a
2017 09 29 9:00 273.7 0.0 0.00 64.3 17.9 69.73 n/a
2017 09 29 10:00 271.9 0.0 0.00 69.6 20.9 60.1 n/a
2017 09 29 11:00 270.7 0.0 0.00 73.7 23.1 46.42 n/a
2017 09 29 12:00 269.8 0.0 0.00 76.2 24.5 41.37 n/a
2017 09 29 13:00 269.8 0.0 0.00 77.0 25.0 39.17 n/a
2017 09 29 14:00 269.6 0.0 0.00 78.3 25.7 37.48 n/a
2017 09 29 15:00 269.5 0.0 0.00 78.7 25.9 36.49 n/a
2017 09 29 16:00 269.5 0.0 0.00 78.8 26.0 33.77 n/a
2017 09 29 17:00 269.3 0.0 0.00 77.7 25.4 32.33 n/a
2017 09 29 18:00 269.9 0.0 0.00 74.8 23.8 40.48 n/a
2017 09 29 19:00 272.1 0.0 0.00 67.3 19.6 56.61 n/a
2017 09 29 20:00 272.6 0.0 0.00 64.4 18.0 62.44 n/a
2017 09 29 21:00 274.4 0.0 0.00 60.8 16.0 73.58 n/a
2017 09 29 22:00 274.6 0.0 0.00 59.9 15.5 73.73 n/a
2017 09 29 23:00 275.4 0.0 0.00 58.2 14.6 78.88 n/a
2017 09 29 24:00 275.5 0.0 0.00 57.9 14.4 78.52 n/a
2017 09 30 1:00 274.8 0.0 0.00 58.7 14.8 73.91 n/a
2017 09 30 2:00 274.5 0.0 0.00 58.6 14.8 71.83 n/a
2017 09 30 3:00 274.2 0.0 0.00 59.2 15.1 71.78 n/a
2017 09 30 4:00 274.0 0.0 0.00 59.6 15.3 70.47 n/a
2017 09 30 5:00 273.7 0.0 0.00 59.6 15.3 67.75 n/a
2017 09 30 6:00 273.7 0.0 0.00 59.0 15.0 67.58 n/a
2017 09 30 7:00 273.6 0.0 0.00 58.5 14.7 67.83 n/a
2017 09 30 8:00 273.1 0.0 0.00 59.5 15.3 65.53 n/a
2017 09 30 9:00 272.3 0.0 0.00 62.0 16.6 59.26 n/a
2017 09 30 10:00 271.2 0.0 0.00 66.8 19.4 48.97 n/a
2017 09 30 11:00 270.7 0.0 0.00 70.8 21.5 45.57 n/a
2017 09 30 12:00 270.0 0.0 0.00 74.4 23.6 41.14 n/a
2017 09 30 13:00 269.5 0.0 0.00 77.6 25.3 36.16 n/a
2017 09 30 14:00 269.4 0.0 0.00 78.5 25.8 34.22 n/a
2017 09 30 15:00 269.4 0.0 0.00 78.6 25.9 34.58 n/a
2017 09 30 16:00 269.5 0.0 0.00 78.8 26.0 34.74 n/a
2017 09 30 17:00 269.5 0.0 0.00 77.8 25.4 36.07 n/a
2017 09 30 18:00 270.2 0.0 0.00 73.4 23.0 44.51 n/a
2017 09 30 19:00 275.0 0.0 0.00 70.3 21.3 51.06 n/a
2017 09 30 20:00 272.5 0.0 0.00 68.2 20.1 54.77 n/a
2017 09 30 21:00 271.6 0.0 0.00 67.1 19.5 53.15 n/a
2017 09 30 22:00 271.6 0.0 0.00 66.3 19.0 50.66 n/a
2017 09 30 23:00 271.6 0.0 0.00 65.1 18.4 50.25 n/a
2017 09 30 24:00 271.2 0.0 0.00 64.5 18.1 46.58 n/a
2017 10 01 1:00 271.1 0.0 0.00 63.8 17.7 46.53 n/a
2017 10 01 2:00 271.7 0.0 0.00 62.7 17.0 49.36 n/a
2017 10 01 3:00 271.7 0.0 0.00 61.7 16.5 50.93 n/a
2017 10 01 4:00 271.7 0.0 0.00 61.8 16.5 49.19 n/a
2017 10 01 5:00 271.7 0.0 0.00 61.3 16.3 48.78 n/a
2017 10 01 6:00 271.7 0.0 0.00 60.7 16.0 49.25 n/a
2017 10 01 7:00 271.6 0.0 0.00 60.3 15.7 50.53 n/a
2017 10 01 8:00 270.8 0.0 0.00 61.6 16.4 50.25 n/a
2017 10 01 9:00 270.4 0.0 0.00 64.2 17.9 47.94 n/a
2017 10 01 10:00 269.9 0.0 0.00 67.2 19.6 44.29 n/a
2017 10 01 11:00 269.7 0.0 0.00 69.3 20.7 42.55 n/a
2017 10 01 12:00 271.3 0.0 0.00 70.5 21.4 45.7 n/a
2017 10 01 13:00 269.4 0.0 0.00 73.1 22.9 42.44 n/a
2017 10 01 14:00 268.8 0.0 0.00 77.2 25.1 34.45 n/a
2017 10 01 15:00 268.8 0.0 0.00 77.5 25.3 33.25 n/a
2017 10 01 16:00 268.8 0.0 0.00 77.3 25.1 35.07 n/a
2017 10 01 17:00 269.3 0.0 0.00 76.2 24.6 37.73 n/a
2017 10 01 18:00 270.0 0.0 0.00 72.8 22.7 43.46 n/a
2017 10 01 19:00 271.0 0.0 0.00 69.4 20.8 49.88 n/a
2017 10 01 20:00 271.0 0.0 0.00 68.5 20.3 48.43 n/a
2017 10 01 21:00 271.3 0.0 0.00 67.2 19.6 51.06 n/a
2017 10 01 22:00 271.6 0.0 0.00 65.8 18.8 54.09 n/a
2017 10 01 23:00 271.7 0.0 0.00 66.4 19.1 56.54 n/a
2017 10 01 24:00 271.8 0.0 0.00 67.0 19.4 61.78 n/a
2017 10 02 1:00 272.7 0.0 0.00 65.8 18.8 71.72 n/a
2017 10 02 2:00 273.8 0.0 0.00 65.7 18.7 79.91 n/a
2017 10 02 3:00 274.8 0.0 0.00 66.1 19.0 84.2 n/a
2017 10 02 4:00 275.3 0.0 0.00 66.4 19.1 86.1 n/a
2017 10 02 5:00 276.0 0.0 0.00 66.1 18.9 87.7 n/a
2017 10 02 6:00 276.4 0.0 0.00 65.8 18.8 89.2 n/a
2017 10 02 7:00 276.2 0.0 0.00 66.3 19.1 88.8 n/a
2017 10 02 8:00 274.6 0.0 0.00 68.5 20.3 84.5 n/a
2017 10 02 9:00 273.4 0.0 0.00 72.3 22.4 77.76 n/a
2017 10 02 10:00 272.3 0.0 0.00 76.3 24.6 69.52 n/a
2017 10 02 11:00 271.8 0.0 0.00 78.5 25.8 65.01 n/a
2017 10 02 12:00 271.2 0.0 0.00 80.5 27.0 60.47 n/a
2017 10 02 13:00 271.0 0.0 0.00 81.4 27.4 58.01 n/a
2017 10 02 14:00 270.8 0.0 0.00 82.2 27.9 53.26 n/a
2017 10 02 15:00 270.7 0.0 0.00 82.7 28.2 51.85 n/a
2017 10 02 16:00 270.4 0.0 0.00 83.8 28.8 48.53 n/a
2017 10 02 17:00 270.8 0.0 0.00 81.7 27.6 52.8 n/a
2017 10 02 18:00 271.1 0.0 0.00 80.6 27.0 54.26 n/a
2017 10 02 19:00 271.9 0.0 0.00 77.2 25.1 59.2 n/a
2017 10 02 20:00 272.4 0.0 0.00 75.0 23.9 64.95 n/a
2017 10 02 21:00 272.4 0.0 0.00 74.6 23.7 62.23 n/a
2017 10 02 22:00 272.3 0.0 0.00 73.7 23.2 60.09 n/a
2017 10 02 23:00 272.3 0.0 0.00 72.1 22.3 63.82 n/a
2017 10 02 24:00 272.9 0.0 0.00 71.3 21.8 67.72 n/a
2017 10 03 1:00 273.2 0.0 0.00 69.9 21.1 72.87 n/a
2017 10 03 2:00 273.7 0.0 0.00 69.0 20.6 75.9 n/a
2017 10 03 3:00 274.0 0.0 0.00 68.0 20.0 79.11 n/a
2017 10 03 4:00 274.7 0.0 0.00 67.2 19.6 82.8 n/a
2017 10 03 5:00 274.6 0.0 0.00 67.8 19.9 83.4 n/a
2017 10 03 6:00 275.2 0.0 0.00 67.9 19.9 85.5 n/a
2017 10 03 7:00 275.6 0.0 0.00 68.7 20.4 86.6 n/a
2017 10 03 8:00 274.5 0.0 0.00 70.8 21.6 83.9 n/a
2017 10 03 9:00 273.7 0.0 0.00 73.0 22.8 79.32 n/a
2017 10 03 10:00 273.8 0.0 0.00 73.5 23.0 79.19 n/a
2017 10 03 11:00 273.2 0.0 0.00 75.3 24.1 75.34 n/a
2017 10 03 12:00 272.6 0.0 0.00 77.0 25.0 72.76 n/a
2017 10 03 13:00 272.1 0.0 0.00 79.3 26.3 67.7 n/a
2017 10 03 14:00 272.3 0.0 0.00 79.3 26.3 68.85 n/a
2017 10 03 15:00 Wet 290.2 0.0 0.76 76.8 24.9 79.4 n/a
2017 10 03 16:00 Wet 321.8 0.0 0.51 73.1 22.8 92.5 n/a
2017 10 03 17:00 274.6 0.0 0.00 75.3 24.1 85.7 n/a
2017 10 03 18:00 276.1 0.0 0.00 73.3 22.9 89.2 n/a
2017 10 03 19:00 276.8 0.0 0.00 72.2 22.3 91.6 n/a
2017 10 03 20:00 278.8 0.0 0.00 71.2 21.8 93.1 n/a
2017 10 03 21:00 277.3 0.0 0.00 70.8 21.6 92.1 n/a
2017 10 03 22:00 278.6 0.0 0.00 70.4 21.4 93.9 n/a
2017 10 03 23:00 277.9 0.0 0.00 70.4 21.3 94 n/a
2017 10 03 24:00 277.8 0.0 0.00 70.3 21.3 93.8 n/a
2017 10 04 1:00 277.9 0.0 0.00 70.2 21.2 94.1 n/a
2017 10 04 2:00 278.5 0.0 0.00 69.9 21.1 94.9 n/a
2017 10 04 3:00 280.4 0.0 0.00 69.8 21.0 95.3 n/a
2017 10 04 4:00 Wet 334.5 0.0 0.00 69.7 20.9 95.6 n/a
2017 10 04 5:00 Wet 337.9 0.0 0.25 69.5 20.9 95.8 n/a
2017 10 04 6:00 Wet 343.0 0.0 0.25 69.4 20.8 96 n/a
2017 10 04 7:00 Wet 345.4 0.0 0.25 69.5 20.8 95.8 n/a
2017 10 04 8:00 Wet 359.5 0.0 0.25 69.6 20.9 96 n/a
2017 10 04 9:00 Wet 294.8 0.0 0.00 70.0 21.1 95.5 n/a
2017 10 04 10:00 277.4 0.0 0.00 71.3 21.8 92.4 n/a
2017 10 04 11:00 277.7 0.0 0.00 71.9 22.2 89.2 n/a
2017 10 04 12:00 Wet 417.1 0.1 1.27 58.0 14.4 80 n/a
2017 10 04 13:00 Wet 450.7 0.1 2.29 68.5 20.3 93.4 n/a
2017 10 04 14:00 Wet 447.7 0.0 0.76 62.8 17.1 95.2 n/a
2017 10 04 15:00 Wet 337.3 0.0 0.00 62.6 17.0 95.1 n/a
2017 10 04 16:00 Wet 443.6 0.0 1.02 62.9 17.2 95.9 n/a
2017 10 04 17:00 Wet 351.8 0.0 0.00 63.3 17.4 96.4 n/a
2017 10 04 18:00 Wet 359.3 0.0 0.00 63.3 17.4 96.6 n/a
2017 10 04 19:00 Wet 372.2 0.0 0.76 62.9 17.1 96.7 n/a
2017 10 04 20:00 Wet 331.4 0.0 0.00 62.8 17.1 96.8 n/a
2017 10 04 21:00 Wet 308.8 0.0 0.00 63.0 17.3 97 n/a
2017 10 04 22:00 Wet 284.6 0.0 0.00 63.4 17.4 97.1 n/a
2017 10 04 23:00 Wet 294.3 0.0 0.00 63.5 17.5 97.5 n/a
2017 10 04 24:00 Wet 315.3 0.0 0.00 63.7 17.6 98.3 n/a
2017 10 05 1:00 Wet 391.7 0.0 0.51 64.1 17.8 98.4 n/a
2017 10 05 2:00 Wet 444.1 0.0 0.76 64.7 18.2 98.5 n/a
2017 10 05 3:00 Wet 416.7 0.0 1.02 65.9 18.8 98.3 n/a
2017 10 05 4:00 Wet 308.2 0.0 0.00 66.5 19.2 96.6 n/a
2017 10 05 5:00 282.2 0.0 0.00 66.8 19.3 94.7 n/a
2017 10 05 6:00 Wet 300.0 0.0 0.00 66.6 19.2 95.5 n/a
2017 10 05 7:00 Wet 321.2 0.0 0.00 66.4 19.1 96 n/a
2017 10 05 8:00 280.0 0.0 0.00 66.8 19.3 94.7 n/a
2017 10 05 9:00 276.1 0.0 0.00 67.6 19.8 93 n/a
2017 10 05 10:00 272.2 0.0 0.00 70.0 21.1 87.4 n/a
2017 10 05 11:00 270.2 0.0 0.00 71.9 22.2 81 n/a
2017 10 05 12:00 269.8 0.0 0.00 72.6 22.5 79.13 n/a
2017 10 05 13:00 269.5 0.0 0.00 72.8 22.7 79.03 n/a
2017 10 05 14:00 269.5 0.0 0.00 74.0 23.3 76.97 n/a
2017 10 05 15:00 269.5 0.0 0.00 75.0 23.9 75.72 n/a
2017 10 05 16:00 269.6 0.0 0.00 74.0 23.3 76.63 n/a
2017 10 05 17:00 270.2 0.0 0.00 72.4 22.4 78.64 n/a
2017 10 05 18:00 270.6 0.0 0.00 71.2 21.8 82.8 n/a
2017 10 05 19:00 271.3 0.0 0.00 69.8 21.0 87 n/a
2017 10 05 20:00 272.2 0.0 0.00 69.1 20.6 89.6 n/a
2017 10 05 21:00 272.3 0.0 0.00 69.1 20.6 90 n/a
2017 10 05 22:00 Wet 289.0 0.0 0.00 69.3 20.7 90.3 n/a
2017 10 05 23:00 Wet 300.0 0.0 0.00 69.2 20.7 91.3 n/a
2017 10 05 24:00 283.1 0.0 0.00 69.4 20.8 89.8 n/a
2017 10 06 1:00 Wet 320.7 0.0 0.00 68.8 20.5 91.6 n/a
2017 10 06 2:00 280.9 0.0 0.00 68.6 20.3 91.8 n/a
2017 10 06 3:00 279.9 0.0 0.00 68.5 20.3 89.7 n/a
2017 10 06 4:00 277.5 0.0 0.00 68.4 20.2 89 n/a
2017 10 06 5:00 279.8 0.0 0.25 68.0 20.0 88.7 n/a
2017 10 06 6:00 Wet 368.9 0.1 1.78 66.4 19.1 92.9 n/a
2017 10 06 7:00 Wet 398.4 0.1 2.29 66.0 18.9 95 n/a
2017 10 06 8:00 Wet 397.7 0.1 2.54 65.9 18.8 95.4 n/a
2017 10 06 9:00 Wet 353.4 0.0 0.76 66.1 19.0 94.6 n/a
2017 10 06 10:00 Wet 322.3 0.0 0.76 66.6 19.2 93.3 n/a
2017 10 06 11:00 279.6 0.0 0.00 67.4 19.6 91.4 n/a
2017 10 06 12:00 272.3 0.0 0.00 68.8 20.4 87.7 n/a
2017 10 06 13:00 Wet 284.7 0.0 0.00 68.6 20.3 86.8 n/a
2017 10 06 14:00 Wet 389.4 0.0 0.76 68.0 20.0 91.9 n/a
2017 10 06 15:00 278.8 0.0 0.00 70.8 21.5 90.4 n/a
2017 10 06 16:00 271.4 0.0 0.00 74.8 23.8 79.63 n/a
2017 10 06 17:00 270.2 0.0 0.00 75.4 24.1 71.89 n/a
2017 10 06 18:00 270.4 0.0 0.00 73.8 23.2 75.32 n/a
2017 10 06 19:00 270.9 0.0 0.00 72.6 22.5 76.85 n/a
2017 10 06 20:00 270.4 0.0 0.00 71.6 22.0 74.62 n/a
2017 10 06 21:00 270.3 0.0 0.00 70.7 21.5 73.87 n/a
2017 10 06 22:00 270.3 0.0 0.00 70.7 21.5 72.87 n/a
2017 10 06 23:00 270.3 0.0 0.00 70.3 21.3 72.05 n/a
2017 10 06 24:00 270.3 0.0 0.00 70.1 21.2 70.32 n/a
2017 10 07 1:00 Wet 330.9 0.0 1.02 69.0 20.5 75.35 n/a
2017 10 07 2:00 Wet 334.0 0.0 0.25 66.6 19.2 85.1 n/a
2017 10 07 3:00 Wet 435.3 0.1 3.56 65.8 18.8 90 n/a
2017 10 07 4:00 Wet 346.9 0.1 1.52 65.8 18.8 91.3 n/a
2017 10 07 5:00 Wet 294.3 0.0 0.25 65.8 18.8 90.8 n/a
CST mV in mm F C % mph
Year Month Day Hour Leaf Wetness Total
Precipitation
Avg. Temp Avg. Rel.
Humidity
Wind
Speed

Back to the top of the page